Observation data for Lake Alan Henry on 01/19/2019      Previous  Date  Next       Current Mesonet Observations  Soil Data  Daily Summary Page  Observations in Plain Language
KAHS 190600Z 34025G32KT 05/M02 A3002 RMK A01 T00461021  RH  062%=      5-min Rain = 0
KAHS 190601Z 34020G26KT 05/M02 A3002 RMK A01 T00451021  RH  062%=      5-min Rain = 0
KAHS 190602Z 34022KT 04/M02 A3002 RMK A01 T00441019  RH  064%=      5-min Rain = 0
KAHS 190603Z 34022KT 04/M02 A3002 RMK A01 T00431018  RH  064%=      5-min Rain = 0
KAHS 190604Z 34022G32KT 04/M02 A3002 RMK A01 T00421017  RH  065%=      5-min Rain = 0
KAHS 190605Z 34026G31KT 04/M02 A3002 RMK A01 T00411016  RH  066%=      5-min Rain = 0
KAHS 190606Z 35026KT 04/M02 A3002 RMK A01 T00391016  RH  067%=      5-min Rain = 0
KAHS 190607Z 34020KT 04/M02 A3002 RMK A01 T00391015  RH  068%=      5-min Rain = 0
KAHS 190608Z 33019KT 04/M01 A3003 RMK A01 T00371013  RH  070%=      5-min Rain = 0
KAHS 190609Z 34022G27KT 04/M01 A3002 RMK A01 T00371012  RH  070%=      5-min Rain = 0
KAHS 190610Z 33019KT 04/M01 A3003 RMK A01 T00371013  RH  070%=      5-min Rain = 0
KAHS 190611Z 34015KT 04/M01 A3003 RMK A01 T00371011  RH  070%=      5-min Rain = 0
KAHS 190612Z 34014G19KT 04/M01 A3003 RMK A01 T00381010  RH  071%=      5-min Rain = 0
KAHS 190613Z 33016KT 04/M01 A3003 RMK A01 T00381008  RH  072%=      5-min Rain = 0
KAHS 190614Z 34022G28KT 04/M01 A3003 RMK A01 T00381011  RH  070%=      5-min Rain = 0
KAHS 190615Z 34018G24KT 04/M01 A3003 RMK A01 T00391014  RH  069%=      5-min Rain = 0
KAHS 190616Z 34018G24KT 04/M01 A3003 RMK A01 T00391012  RH  069%=      5-min Rain = 0
KAHS 190617Z 33019KT 04/M01 A3003 RMK A01 T00391010  RH  070%=      5-min Rain = 0
KAHS 190618Z 32022G27KT 04/M01 A3003 RMK A01 T00361007  RH  073%=      5-min Rain = 0
KAHS 190619Z 32022G27KT 03/M00 A3003 RMK A01 T00311003  RH  078%=      5-min Rain = 0
KAHS 190620Z 32020G25KT 03/M00 A3004 RMK A01 T00261001  RH  082%=      5-min Rain = 0
KAHS 190621Z 32021KT 02/00 A3004 RMK A01 T00230001  RH  085%=      5-min Rain = 0
KAHS 190622Z 32018KT 02/00 A3004 RMK A01 T00210002  RH  087%=      5-min Rain = 0
KAHS 190623Z 32021KT 02/00 A3004 RMK A01 T00190002  RH  088%=      5-min Rain = 0
KAHS 190624Z 31019G25KT 02/00 A3004 RMK A01 T00180002  RH  089%=      5-min Rain = 0
KAHS 190625Z 32021KT 02/00 A3004 RMK A01 T00170002  RH  090%=      5-min Rain = 0
KAHS 190626Z 32019KT 02/00 A3004 RMK A01 T00170002  RH  090%=      5-min Rain = 0
KAHS 190627Z 32017KT 02/00 A3004 RMK A01 T00170003  RH  091%=      5-min Rain = 0
KAHS 190628Z 31018G24KT 02/00 A3004 RMK A01 T00170004  RH  091%=      5-min Rain = 0
KAHS 190629Z 32015KT 02/00 A3004 RMK A01 T00170004  RH  091%=      5-min Rain = 0
KAHS 190630Z 32016KT 02/00 A3004 RMK A01 T00170004  RH  091%=      5-min Rain = 0
KAHS 190631Z 32016KT 02/01 A3004 RMK A01 T00170005  RH  091%=      5-min Rain = 0
KAHS 190632Z 32015KT 02/01 A3004 RMK A01 T00180005  RH  091%=      5-min Rain = 0
KAHS 190633Z 32016G21KT 02/01 A3004 RMK A01 T00180005  RH  091%=      5-min Rain = 0
KAHS 190634Z 32018G25KT 02/01 A3004 RMK A01 T00190005  RH  091%=      5-min Rain = 0
KAHS 190635Z 32018KT 02/01 A3004 RMK A01 T00200005  RH  090%=      5-min Rain = 0
KAHS 190636Z 32019KT 02/01 A3004 RMK A01 T00210005  RH  089%=      5-min Rain = 0
KAHS 190637Z 32018G23KT 02/01 A3004 RMK A01 T00210005  RH  089%=      5-min Rain = 0
KAHS 190638Z 32017KT 02/00 A3004 RMK A01 T00210004  RH  088%=      5-min Rain = 0
KAHS 190639Z 32017KT 02/01 A3004 RMK A01 T00220005  RH  088%=      5-min Rain = 0
KAHS 190640Z 33015G21KT 02/00 A3005 RMK A01 T00220004  RH  088%=      5-min Rain = 0
KAHS 190641Z 33015KT 02/01 A3005 RMK A01 T00220005  RH  088%=      5-min Rain = 0
KAHS 190642Z 32019G26KT 02/00 A3005 RMK A01 T00220004  RH  088%=      5-min Rain = 0
KAHS 190643Z 33019G24KT 02/00 A3005 RMK A01 T00230003  RH  087%=      5-min Rain = 0
KAHS 190644Z 33016KT 02/00 A3005 RMK A01 T00230003  RH  087%=      5-min Rain = 0
KAHS 190645Z 33020G25KT 02/00 A3005 RMK A01 T00230003  RH  087%=      5-min Rain = 0
KAHS 190646Z 34024KT 02/00 A3005 RMK A01 T00230002  RH  086%=      5-min Rain = 0
KAHS 190647Z 33021G26KT 02/00 A3005 RMK A01 T00220001  RH  086%=      5-min Rain = 0
KAHS 190648Z 33022KT 02/00 A3005 RMK A01 T00220001  RH  086%=      5-min Rain = 0
KAHS 190649Z 33023G28KT 02/00 A3005 RMK A01 T00210001  RH  087%=      5-min Rain = 0
KAHS 190650Z 33022G27KT 02/00 A3006 RMK A01 T00210001  RH  087%=      5-min Rain = 0
KAHS 190651Z 33020G25KT 02/00 A3006 RMK A01 T00200001  RH  088%=      5-min Rain = 0
KAHS 190652Z 33019G24KT 02/00 A3006 RMK A01 T00190002  RH  089%=      5-min Rain = 0
KAHS 190653Z 33019G24KT 02/00 A3006 RMK A01 T00170001  RH  089%=      5-min Rain = 0
KAHS 190654Z 33020KT 02/00 A3006 RMK A01 T00150001  RH  090%=      5-min Rain = 0
KAHS 190655Z 33018KT 02/00 A3006 RMK A01 T00150001  RH  090%=      5-min Rain = 0
KAHS 190656Z 33019G24KT 02/00 A3006 RMK A01 T00150001  RH  091%=      5-min Rain = 0
KAHS 190657Z 34017KT 02/00 A3006 RMK A01 T00150001  RH  090%=      5-min Rain = 0
KAHS 190658Z 33018KT 02/00 A3006 RMK A01 T00160001  RH  090%=      5-min Rain = 0
KAHS 190659Z 33022KT 02/00 A3006 RMK A01 T00160001  RH  090%=      5-min Rain = 0
KAHS 190700Z 34019G28KT 02/00 A3007 RMK A01 T00170000  RH  089%=      5-min Rain = 0
KAHS 190701Z 34022G27KT 02/00 A3007 RMK A01 T00170000  RH  089%=      5-min Rain = 0
KAHS 190702Z 34022G27KT 02/00 A3007 RMK A01 T00170000  RH  089%=      5-min Rain = 0
KAHS 190703Z 34018KT 02/M00 A3007 RMK A01 T00151001  RH  090%=      5-min Rain = 0
KAHS 190704Z 35017KT 01/M00 A3007 RMK A01 T00131001  RH  091%=      5-min Rain = 0
KAHS 190705Z 35017KT 01/M00 A3007 RMK A01 T00121001  RH  091%=      5-min Rain = 0
KAHS 190706Z 35014G19KT 01/M00 A3008 RMK A01 T00111001  RH  092%=      5-min Rain = 0
KAHS 190707Z 35012KT 01/00 A3008 RMK A01 T001100-0  RH  092%=      5-min Rain = 0
KAHS 190708Z 35014KT 01/00 A3008 RMK A01 T001000-0  RH  093%=      5-min Rain = 0.01
KAHS 190709Z 35015KT 01/00 A3008 RMK A01 T00100000  RH  093%=      5-min Rain = 0
KAHS 190710Z 35011G18KT 01/00 A3008 RMK A01 T00100001  RH  093%=      5-min Rain = 0
KAHS 190711Z 35014KT 01/00 A3008 RMK A01 T00100001  RH  093%=      5-min Rain = 0
KAHS 190712Z 35011KT 01/00 A3008 RMK A01 T00110001  RH  093%=      5-min Rain = 0
KAHS 190713Z 35009KT 01/00 A3008 RMK A01 T00110002  RH  094%=      5-min Rain = 0
KAHS 190714Z 35011KT 01/00 A3008 RMK A01 T00110002  RH  094%=      5-min Rain = 0
KAHS 190715Z 35011KT 01/00 A3008 RMK A01 T00110003  RH  094%=      5-min Rain = 0
KAHS 190716Z 35012KT 01/00 A3008 RMK A01 T00120003  RH  094%=      5-min Rain = 0
KAHS 190717Z 34010KT 01/00 A3008 RMK A01 T00120003  RH  094%=      5-min Rain = 0
KAHS 190718Z 34011G16KT 01/00 A3008 RMK A01 T00130003  RH  094%=      5-min Rain = 0
KAHS 190719Z 35012KT 01/00 A3008 RMK A01 T00130003  RH  093%=      5-min Rain = 0
KAHS 190720Z 35013KT 01/00 A3008 RMK A01 T00140003  RH  093%=      5-min Rain = 0
KAHS 190721Z 34012KT 02/00 A3008 RMK A01 T00150003  RH  092%=      5-min Rain = 0
KAHS 190722Z 35012KT 02/00 A3008 RMK A01 T00150002  RH  091%=      5-min Rain = 0
KAHS 190723Z 35013G19KT 02/00 A3008 RMK A01 T00160002  RH  090%=      5-min Rain = 0
KAHS 190724Z 34016G21KT 02/00 A3008 RMK A01 T00170001  RH  089%=      5-min Rain = 0
KAHS 190725Z 34017G22KT 02/M00 A3008 RMK A01 T00181001  RH  087%=      5-min Rain = 0
KAHS 190726Z 35014KT 02/M00 A3008 RMK A01 T00191002  RH  086%=      5-min Rain = 0
KAHS 190727Z 35016G21KT 02/M00 A3008 RMK A01 T00191003  RH  085%=      5-min Rain = 0
KAHS 190728Z 35016KT 02/M00 A3008 RMK A01 T00201003  RH  084%=      5-min Rain = 0
KAHS 190729Z 35021KT 02/M00 A3008 RMK A01 T00201004  RH  084%=      5-min Rain = 0
KAHS 190730Z 36018KT 02/M01 A3009 RMK A01 T00201007  RH  083%=      5-min Rain = 0
KAHS 190731Z 35015KT 02/M01 A3008 RMK A01 T00201006  RH  083%=      5-min Rain = 0
KAHS 190732Z 36014KT 02/M01 A3009 RMK A01 T00201005  RH  084%=      5-min Rain = 0
KAHS 190733Z 35014G19KT 02/M00 A3009 RMK A01 T00201004  RH  084%=      5-min Rain = 0
KAHS 190734Z 36018KT 02/M00 A3009 RMK A01 T00191004  RH  085%=      5-min Rain = 0
KAHS 190735Z 35013KT 02/M00 A3009 RMK A01 T00191004  RH  085%=      5-min Rain = 0
KAHS 190736Z 35015G20KT 02/M00 A3009 RMK A01 T00181004  RH  086%=      5-min Rain = 0
KAHS 190737Z 35015KT 02/M00 A3009 RMK A01 T00171004  RH  086%=      5-min Rain = 0
KAHS 190738Z 35014KT 02/M00 A3009 RMK A01 T00171003  RH  086%=      5-min Rain = 0
KAHS 190739Z 35011KT 02/M00 A3009 RMK A01 T00171003  RH  087%=      5-min Rain = 0
KAHS 190740Z 35011KT 02/M00 A3009 RMK A01 T00171002  RH  087%=      5-min Rain = 0
KAHS 190741Z 35014KT 02/M00 A3009 RMK A01 T00171002  RH  088%=      5-min Rain = 0
KAHS 190742Z 35012KT 02/M00 A3009 RMK A01 T00171002  RH  087%=      5-min Rain = 0
KAHS 190743Z 35010KT 02/M00 A3009 RMK A01 T00171003  RH  087%=      5-min Rain = 0
KAHS 190744Z 35010KT 02/M00 A3009 RMK A01 T00171002  RH  087%=      5-min Rain = 0
KAHS 190745Z 34010KT 02/M00 A3009 RMK A01 T00171002  RH  087%=      5-min Rain = 0
KAHS 190746Z 34011KT 02/M00 A3009 RMK A01 T00171002  RH  087%=      5-min Rain = 0
KAHS 190747Z 34009KT 02/M00 A3009 RMK A01 T00171002  RH  087%=      5-min Rain = 0
KAHS 190748Z 33008KT 02/M00 A3009 RMK A01 T00171002  RH  087%=      5-min Rain = 0
KAHS 190749Z 34009KT 02/M00 A3009 RMK A01 T00171001  RH  088%=      5-min Rain = 0
KAHS 190750Z 33009KT 02/M00 A3009 RMK A01 T00181001  RH  087%=      5-min Rain = 0
KAHS 190751Z 34009KT 02/M00 A3009 RMK A01 T00181001  RH  087%=      5-min Rain = 0
KAHS 190752Z 33010KT 02/M00 A3009 RMK A01 T00191002  RH  087%=      5-min Rain = 0
KAHS 190753Z 33009KT 02/M00 A3009 RMK A01 T00191001  RH  087%=      5-min Rain = 0
KAHS 190754Z 34010KT 02/M00 A3009 RMK A01 T00191001  RH  087%=      5-min Rain = 0
KAHS 190755Z 33009KT 02/M00 A3009 RMK A01 T00191001  RH  086%=      5-min Rain = 0
KAHS 190756Z 33009KT 02/M00 A3009 RMK A01 T00201001  RH  086%=      5-min Rain = 0
KAHS 190757Z 33011KT 02/M00 A3009 RMK A01 T00201002  RH  085%=      5-min Rain = 0
KAHS 190758Z 33012KT 02/M00 A3009 RMK A01 T00211002  RH  085%=      5-min Rain = 0
KAHS 190759Z 32010KT 02/M00 A3009 RMK A01 T00211003  RH  084%=      5-min Rain = 0
KAHS 190800Z 33011KT 02/M00 A301 RMK A01 T00211003  RH  084%=      5-min Rain = 0
KAHS 190801Z 33009KT 02/M00 A301 RMK A01 T00211003  RH  084%=      5-min Rain = 0
KAHS 190802Z 33011KT 02/M00 A301 RMK A01 T00211002  RH  084%=      5-min Rain = 0
KAHS 190803Z 33011KT 02/M00 A3009 RMK A01 T00211002  RH  084%=      5-min Rain = 0
KAHS 190804Z 33011KT 02/M00 A301 RMK A01 T00221003  RH  084%=      5-min Rain = 0
KAHS 190805Z 33013KT 02/M00 A3009 RMK A01 T00221003  RH  084%=      5-min Rain = 0
KAHS 190806Z 33012KT 02/M00 A3009 RMK A01 T00221004  RH  083%=      5-min Rain = 0
KAHS 190807Z 33010KT 02/M00 A3009 RMK A01 T00231004  RH  083%=      5-min Rain = 0
KAHS 190808Z 33013KT 02/M00 A3009 RMK A01 T00231003  RH  083%=      5-min Rain = 0
KAHS 190809Z 33011KT 02/M00 A3009 RMK A01 T00231004  RH  082%=      5-min Rain = 0
KAHS 190810Z 33011KT 02/M00 A3009 RMK A01 T00231004  RH  082%=      5-min Rain = 0
KAHS 190811Z 33014KT 02/M00 A3009 RMK A01 T00231003  RH  083%=      5-min Rain = 0
KAHS 190812Z 33013KT 02/M00 A3009 RMK A01 T00231004  RH  082%=      5-min Rain = 0
KAHS 190813Z 33012G17KT 02/M00 A3009 RMK A01 T00231004  RH  082%=      5-min Rain = 0
KAHS 190814Z 34011KT 02/M00 A3009 RMK A01 T00231003  RH  083%=      5-min Rain = 0
KAHS 190815Z 33011KT 02/M00 A301 RMK A01 T00231002  RH  083%=      5-min Rain = 0
KAHS 190816Z 34013KT 02/M00 A3009 RMK A01 T00231003  RH  083%=      5-min Rain = 0
KAHS 190817Z 34015KT 02/M00 A3009 RMK A01 T00241004  RH  082%=      5-min Rain = 0
KAHS 190818Z 34014KT 02/M01 A301 RMK A01 T00241005  RH  081%=      5-min Rain = 0
KAHS 190819Z 34013KT 03/M00 A301 RMK A01 T00251004  RH  081%=      5-min Rain = 0
KAHS 190820Z 34012KT 03/M00 A301 RMK A01 T00251004  RH  082%=      5-min Rain = 0
KAHS 190821Z 34013G18KT 03/M00 A301 RMK A01 T00251003  RH  082%=      5-min Rain = 0
KAHS 190822Z 33017KT 03/M00 A3009 RMK A01 T00251004  RH  082%=      5-min Rain = 0
KAHS 190823Z 33014KT 03/M00 A301 RMK A01 T00251004  RH  081%=      5-min Rain = 0
KAHS 190824Z 34014KT 03/M01 A301 RMK A01 T00251005  RH  081%=      5-min Rain = 0
KAHS 190825Z 33011KT 03/M01 A301 RMK A01 T00251005  RH  081%=      5-min Rain = 0
KAHS 190826Z 33011KT 03/M00 A301 RMK A01 T00251004  RH  081%=      5-min Rain = 0
KAHS 190827Z 33014G20KT 03/M00 A301 RMK A01 T00251004  RH  081%=      5-min Rain = 0
KAHS 190828Z 34014KT 03/M01 A301 RMK A01 T00251006  RH  080%=      5-min Rain = 0
KAHS 190829Z 33011KT 03/M01 A301 RMK A01 T00251005  RH  080%=      5-min Rain = 0
KAHS 190830Z 33011KT 03/M00 A301 RMK A01 T00251004  RH  081%=      5-min Rain = 0
KAHS 190831Z 33010KT 03/M00 A301 RMK A01 T00251004  RH  081%=      5-min Rain = 0
KAHS 190832Z 33012KT 03/M00 A301 RMK A01 T00251003  RH  082%=      5-min Rain = 0
KAHS 190833Z 33012KT 03/M00 A301 RMK A01 T00251004  RH  081%=      5-min Rain = 0
KAHS 190834Z 33010KT 03/M00 A301 RMK A01 T00251004  RH  081%=      5-min Rain = 0
KAHS 190835Z 33009KT 03/M00 A301 RMK A01 T00251003  RH  082%=      5-min Rain = 0
KAHS 190836Z 33010KT 03/M00 A301 RMK A01 T00251003  RH  082%=      5-min Rain = 0
KAHS 190837Z 33009KT 03/M00 A301 RMK A01 T00251003  RH  082%=      5-min Rain = 0
KAHS 190838Z 32010KT 03/M00 A301 RMK A01 T00251003  RH  082%=      5-min Rain = 0
KAHS 190839Z 33009KT 03/M00 A301 RMK A01 T00251003  RH  082%=      5-min Rain = 0
KAHS 190840Z 32009KT 03/M00 A301 RMK A01 T00251002  RH  083%=      5-min Rain = 0
KAHS 190841Z 33009KT 03/M00 A301 RMK A01 T00251002  RH  082%=      5-min Rain = 0
KAHS 190842Z 32009KT 03/M00 A301 RMK A01 T00251002  RH  082%=      5-min Rain = 0
KAHS 190843Z 32010KT 03/M00 A301 RMK A01 T00251002  RH  083%=      5-min Rain = 0
KAHS 190844Z 32010KT 03/M00 A301 RMK A01 T00251002  RH  083%=      5-min Rain = 0
KAHS 190845Z 32009KT 03/M00 A301 RMK A01 T00251002  RH  083%=      5-min Rain = 0
KAHS 190846Z 32008KT 03/M00 A301 RMK A01 T00251001  RH  083%=      5-min Rain = 0
KAHS 190847Z 33010KT 03/M00 A301 RMK A01 T00251001  RH  083%=      5-min Rain = 0
KAHS 190848Z 32010KT 03/M00 A301 RMK A01 T00251001  RH  083%=      5-min Rain = 0
KAHS 190849Z 32010KT 03/M00 A301 RMK A01 T00251002  RH  083%=      5-min Rain = 0
KAHS 190850Z 32009KT 03/M00 A301 RMK A01 T00251002  RH  082%=      5-min Rain = 0
KAHS 190851Z 32009KT 03/M00 A301 RMK A01 T00251002  RH  082%=      5-min Rain = 0
KAHS 190852Z 32008KT 03/M00 A301 RMK A01 T00251001  RH  083%=      5-min Rain = 0
KAHS 190853Z 32006KT 03/M00 A301 RMK A01 T00251001  RH  083%=      5-min Rain = 0
KAHS 190854Z 32008KT 03/00 A301 RMK A01 T00250000  RH  084%=      5-min Rain = 0
KAHS 190855Z 32008KT 03/M00 A301 RMK A01 T00251001  RH  083%=      5-min Rain = 0
KAHS 190856Z 32007KT 03/M00 A301 RMK A01 T00251001  RH  083%=      5-min Rain = 0
KAHS 190857Z 32007KT 03/M00 A301 RMK A01 T00251001  RH  083%=      5-min Rain = 0
KAHS 190858Z 32009KT 03/00 A301 RMK A01 T002500-0  RH  084%=      5-min Rain = 0
KAHS 190859Z 32009KT 03/M00 A301 RMK A01 T00251002  RH  082%=      5-min Rain = 0
KAHS 190900Z 32010KT 03/M00 A301 RMK A01 T00251002  RH  082%=      5-min Rain = 0
KAHS 190901Z 32009KT 03/M00 A301 RMK A01 T00251002  RH  082%=      5-min Rain = 0
KAHS 190902Z 31008KT 03/M00 A301 RMK A01 T00251002  RH  083%=      5-min Rain = 0
KAHS 190903Z 31010KT 03/M00 A301 RMK A01 T00251002  RH  082%=      5-min Rain = 0
KAHS 190904Z 31010KT 03/M00 A3011 RMK A01 T00251002  RH  082%=      5-min Rain = 0
KAHS 190905Z 31009KT 03/M00 A3011 RMK A01 T00251002  RH  082%=      5-min Rain = 0
KAHS 190906Z 31008KT 03/M00 A3011 RMK A01 T00251002  RH  083%=      5-min Rain = 0
KAHS 190907Z 31008KT 03/M00 A3011 RMK A01 T00251001  RH  083%=      5-min Rain = 0
KAHS 190908Z 31010KT 03/M00 A3011 RMK A01 T00251001  RH  083%=      5-min Rain = 0
KAHS 190909Z 31009KT 03/M00 A3011 RMK A01 T00251002  RH  083%=      5-min Rain = 0
KAHS 190910Z 32007KT 03/M00 A3011 RMK A01 T00251001  RH  083%=      5-min Rain = 0
KAHS 190911Z 31008KT 03/M00 A3011 RMK A01 T00251001  RH  083%=      5-min Rain = 0
KAHS 190912Z 31009KT 03/M00 A3011 RMK A01 T00251001  RH  083%=      5-min Rain = 0
KAHS 190913Z 31010KT 03/M00 A3011 RMK A01 T00251001  RH  083%=      5-min Rain = 0
KAHS 190914Z 31008KT 03/M00 A3011 RMK A01 T00251001  RH  083%=      5-min Rain = 0
KAHS 190915Z 31010KT 03/00 A3011 RMK A01 T002500-0  RH  083%=      5-min Rain = 0
KAHS 190916Z 32009KT 03/M00 A3011 RMK A01 T00251001  RH  083%=      5-min Rain = 0
KAHS 190917Z 32010KT 03/M00 A3012 RMK A01 T00251002  RH  082%=      5-min Rain = 0
KAHS 190918Z 32010KT 03/M00 A3012 RMK A01 T00251003  RH  082%=      5-min Rain = 0
KAHS 190919Z 32010KT 03/M00 A3012 RMK A01 T00261003  RH  081%=      5-min Rain = 0
KAHS 190920Z 32011KT 03/M00 A3012 RMK A01 T00261004  RH  081%=      5-min Rain = 0
KAHS 190921Z 32012KT 03/M00 A3012 RMK A01 T00271004  RH  080%=      5-min Rain = 0
KAHS 190922Z 32013KT 03/M01 A3012 RMK A01 T00271005  RH  079%=      5-min Rain = 0
KAHS 190923Z 32011KT 03/M01 A3012 RMK A01 T00271006  RH  079%=      5-min Rain = 0
KAHS 190924Z 33012KT 03/M01 A3012 RMK A01 T00271006  RH  079%=      5-min Rain = 0
KAHS 190925Z 32011KT 03/M01 A3012 RMK A01 T00271006  RH  079%=      5-min Rain = 0
KAHS 190926Z 32011KT 03/M01 A3012 RMK A01 T00271006  RH  079%=      5-min Rain = 0
KAHS 190927Z 33012KT 03/M01 A3012 RMK A01 T00271006  RH  079%=      5-min Rain = 0
KAHS 190928Z 32014KT 03/M01 A3012 RMK A01 T00271007  RH  078%=      5-min Rain = 0
KAHS 190929Z 33013KT 03/M01 A3012 RMK A01 T00271009  RH  077%=      5-min Rain = 0
KAHS 190930Z 33013KT 03/M01 A3013 RMK A01 T00271010  RH  077%=      5-min Rain = 0
KAHS 190931Z 33013KT 03/M01 A3013 RMK A01 T00271010  RH  077%=      5-min Rain = 0
KAHS 190932Z 33013G18KT 03/M01 A3013 RMK A01 T00271010  RH  077%=      5-min Rain = 0
KAHS 190933Z 33012KT 03/M01 A3013 RMK A01 T00271011  RH  076%=      5-min Rain = 0
KAHS 190934Z 33013KT 03/M01 A3013 RMK A01 T00271011  RH  076%=      5-min Rain = 0
KAHS 190935Z 33012KT 03/M01 A3013 RMK A01 T00271012  RH  076%=      5-min Rain = 0
KAHS 190936Z 33014KT 03/M01 A3013 RMK A01 T00261013  RH  076%=      5-min Rain = 0
KAHS 190937Z 33011KT 03/M01 A3013 RMK A01 T00261012  RH  076%=      5-min Rain = 0
KAHS 190938Z 33012KT 03/M01 A3013 RMK A01 T00261012  RH  076%=      5-min Rain = 0
KAHS 190939Z 33010KT 03/M01 A3013 RMK A01 T00251012  RH  076%=      5-min Rain = 0
KAHS 190940Z 33010KT 03/M01 A3013 RMK A01 T00251012  RH  077%=      5-min Rain = 0
KAHS 190941Z 33011KT 03/M01 A3013 RMK A01 T00251012  RH  077%=      5-min Rain = 0
KAHS 190942Z 33010KT 02/M01 A3013 RMK A01 T00241012  RH  077%=      5-min Rain = 0
KAHS 190943Z 32009KT 02/M01 A3013 RMK A01 T00241012  RH  077%=      5-min Rain = 0
KAHS 190944Z 32008KT 02/M01 A3013 RMK A01 T00231011  RH  078%=      5-min Rain = 0
KAHS 190945Z 32008KT 02/M01 A3013 RMK A01 T00231012  RH  078%=      5-min Rain = 0
KAHS 190946Z 32008KT 02/M01 A3013 RMK A01 T00221012  RH  078%=      5-min Rain = 0
KAHS 190947Z 32011KT 02/M01 A3013 RMK A01 T00211012  RH  079%=      5-min Rain = 0
KAHS 190948Z 31009KT 02/M01 A3013 RMK A01 T00221012  RH  078%=      5-min Rain = 0
KAHS 190949Z 31011KT 02/M01 A3013 RMK A01 T00211012  RH  079%=      5-min Rain = 0
KAHS 190950Z 31010KT 02/M01 A3013 RMK A01 T00211012  RH  079%=      5-min Rain = 0
KAHS 190951Z 32011KT 02/M01 A3013 RMK A01 T00211012  RH  079%=      5-min Rain = 0
KAHS 190952Z 31010KT 02/M01 A3013 RMK A01 T00201013  RH  079%=      5-min Rain = 0
KAHS 190953Z 31010KT 02/M01 A3013 RMK A01 T00201013  RH  079%=      5-min Rain = 0
KAHS 190954Z 32011KT 02/M01 A3013 RMK A01 T00191013  RH  079%=      5-min Rain = 0
KAHS 190955Z 31012KT 02/M01 A3013 RMK A01 T00191013  RH  079%=      5-min Rain = 0
KAHS 190956Z 31011KT 02/M01 A3014 RMK A01 T00191014  RH  079%=      5-min Rain = 0
KAHS 190957Z 32012KT 02/M01 A3014 RMK A01 T00191014  RH  079%=      5-min Rain = 0
KAHS 190958Z 31010KT 02/M01 A3014 RMK A01 T00191014  RH  079%=      5-min Rain = 0
KAHS 190959Z 32010KT 02/M01 A3014 RMK A01 T00181014  RH  079%=      5-min Rain = 0
KAHS 191000Z 32011KT 02/M02 A3014 RMK A01 T00171015  RH  079%=      5-min Rain = 0
KAHS 191001Z 32012KT 02/M02 A3014 RMK A01 T00171015  RH  079%=      5-min Rain = 0
KAHS 191002Z 32012KT 02/M02 A3014 RMK A01 T00181016  RH  078%=      5-min Rain = 0
KAHS 191003Z 32014KT 02/M02 A3014 RMK A01 T00181016  RH  078%=      5-min Rain = 0
KAHS 191004Z 32014KT 02/M02 A3014 RMK A01 T00181016  RH  078%=      5-min Rain = 0
KAHS 191005Z 32012KT 02/M02 A3014 RMK A01 T00181017  RH  078%=      5-min Rain = 0
KAHS 191006Z 33013KT 02/M02 A3014 RMK A01 T00181017  RH  078%=      5-min Rain = 0
KAHS 191007Z 32014KT 02/M02 A3014 RMK A01 T00181017  RH  078%=      5-min Rain = 0
KAHS 191008Z 32013G18KT 02/M02 A3014 RMK A01 T00181017  RH  077%=      5-min Rain = 0
KAHS 191009Z 32014KT 02/M02 A3014 RMK A01 T00181018  RH  077%=      5-min Rain = 0
KAHS 191010Z 32011KT 02/M02 A3014 RMK A01 T00181019  RH  077%=      5-min Rain = 0
KAHS 191011Z 32012KT 02/M02 A3014 RMK A01 T00181018  RH  077%=      5-min Rain = 0
KAHS 191012Z 33013KT 02/M02 A3014 RMK A01 T00181019  RH  077%=      5-min Rain = 0
KAHS 191013Z 33011KT 02/M02 A3014 RMK A01 T00181019  RH  076%=      5-min Rain = 0
KAHS 191014Z 33012KT 02/M02 A3014 RMK A01 T00171020  RH  076%=      5-min Rain = 0
KAHS 191015Z 33011KT 02/M02 A3014 RMK A01 T00181020  RH  076%=      5-min Rain = 0
KAHS 191016Z 33012KT 02/M02 A3014 RMK A01 T00181020  RH  076%=      5-min Rain = 0
KAHS 191017Z 33014G19KT 02/M02 A3014 RMK A01 T00181021  RH  075%=      5-min Rain = 0
KAHS 191018Z 33012KT 02/M02 A3014 RMK A01 T00181022  RH  075%=      5-min Rain = 0
KAHS 191019Z 33011KT 02/M02 A3015 RMK A01 T00181022  RH  075%=      5-min Rain = 0
KAHS 191020Z 33013KT 02/M02 A3015 RMK A01 T00181022  RH  075%=      5-min Rain = 0
KAHS 191021Z 33012KT 02/M02 A3015 RMK A01 T00181022  RH  075%=      5-min Rain = 0
KAHS 191022Z 33012KT 02/M02 A3015 RMK A01 T00181022  RH  075%=      5-min Rain = 0
KAHS 191023Z 33014KT 02/M02 A3015 RMK A01 T00181022  RH  075%=      5-min Rain = 0
KAHS 191024Z 33012KT 02/M02 A3015 RMK A01 T00171022  RH  075%=      5-min Rain = 0
KAHS 191025Z 32012KT 02/M02 A3015 RMK A01 T00181022  RH  075%=      5-min Rain = 0
KAHS 191026Z 32014KT 02/M02 A3015 RMK A01 T00171023  RH  075%=      5-min Rain = 0
KAHS 191027Z 33015G21KT 02/M02 A3015 RMK A01 T00171023  RH  075%=      5-min Rain = 0
KAHS 191028Z 33014KT 02/M02 A3015 RMK A01 T00171024  RH  074%=      5-min Rain = 0
KAHS 191029Z 33014KT 02/M02 A3015 RMK A01 T00171024  RH  074%=      5-min Rain = 0
KAHS 191030Z 32014KT 02/M03 A3015 RMK A01 T00171025  RH  074%=      5-min Rain = 0
KAHS 191031Z 33014G21KT 02/M03 A3015 RMK A01 T00171025  RH  074%=      5-min Rain = 0
KAHS 191032Z 33015KT 02/M03 A3016 RMK A01 T00161026  RH  074%=      5-min Rain = 0
KAHS 191033Z 32013G19KT 02/M03 A3016 RMK A01 T00161026  RH  073%=      5-min Rain = 0
KAHS 191034Z 32015KT 02/M03 A3015 RMK A01 T00161027  RH  073%=      5-min Rain = 0
KAHS 191035Z 32013KT 02/M03 A3016 RMK A01 T00161027  RH  073%=      5-min Rain = 0
KAHS 191036Z 32016KT 02/M03 A3016 RMK A01 T00161027  RH  073%=      5-min Rain = 0
KAHS 191037Z 32015KT 02/M03 A3016 RMK A01 T00161028  RH  073%=      5-min Rain = 0
KAHS 191038Z 32015KT 02/M03 A3016 RMK A01 T00161028  RH  072%=      5-min Rain = 0
KAHS 191039Z 33012KT 02/M03 A3016 RMK A01 T00161027  RH  073%=      5-min Rain = 0
KAHS 191040Z 32011KT 02/M03 A3016 RMK A01 T00151027  RH  074%=      5-min Rain = 0
KAHS 191041Z 32014KT 02/M03 A3016 RMK A01 T00151027  RH  074%=      5-min Rain = 0
KAHS 191042Z 32013KT 02/M03 A3016 RMK A01 T00151028  RH  073%=      5-min Rain = 0
KAHS 191043Z 33013KT 02/M03 A3016 RMK A01 T00151028  RH  073%=      5-min Rain = 0
KAHS 191044Z 32015KT 02/M03 A3016 RMK A01 T00151029  RH  073%=      5-min Rain = 0
KAHS 191045Z 33012G20KT 02/M03 A3016 RMK A01 T00151029  RH  073%=      5-min Rain = 0
KAHS 191046Z 33016G22KT 02/M03 A3016 RMK A01 T00151029  RH  073%=      5-min Rain = 0
KAHS 191047Z 33015G20KT 02/M03 A3016 RMK A01 T00151031  RH  071%=      5-min Rain = 0
KAHS 191048Z 32013KT 02/M03 A3016 RMK A01 T00151031  RH  071%=      5-min Rain = 0
KAHS 191049Z 33012KT 02/M03 A3017 RMK A01 T00151031  RH  071%=      5-min Rain = 0
KAHS 191050Z 32012KT 01/M03 A3017 RMK A01 T00141031  RH  072%=      5-min Rain = 0
KAHS 191051Z 31011G16KT 01/M03 A3017 RMK A01 T00141030  RH  073%=      5-min Rain = 0
KAHS 191052Z 32012KT 01/M03 A3017 RMK A01 T00131030  RH  073%=      5-min Rain = 0
KAHS 191053Z 32010KT 01/M03 A3017 RMK A01 T00131030  RH  073%=      5-min Rain = 0
KAHS 191054Z 32014KT 01/M03 A3017 RMK A01 T00121031  RH  073%=      5-min Rain = 0
KAHS 191055Z 32012KT 01/M03 A3017 RMK A01 T00131031  RH  072%=      5-min Rain = 0
KAHS 191056Z 33016G21KT 01/M03 A3017 RMK A01 T00131032  RH  072%=      5-min Rain = 0
KAHS 191057Z 33015KT 01/M03 A3017 RMK A01 T00141034  RH  071%=      5-min Rain = 0
KAHS 191058Z 33014G20KT 01/M03 A3017 RMK A01 T00141034  RH  070%=      5-min Rain = 0
KAHS 191059Z 33016G21KT 01/M04 A3017 RMK A01 T00141035  RH  070%=      5-min Rain = 0
KAHS 191100Z 33015KT 01/M04 A3017 RMK A01 T00141035  RH  070%=      5-min Rain = 0
KAHS 191101Z 33014G20KT 01/M04 A3017 RMK A01 T00141035  RH  070%=      5-min Rain = 0
KAHS 191102Z 32011KT 01/M03 A3018 RMK A01 T00141034  RH  070%=      5-min Rain = 0
KAHS 191103Z 32012KT 01/M03 A3018 RMK A01 T00131034  RH  071%=      5-min Rain = 0
KAHS 191104Z 31012G17KT 01/M03 A3018 RMK A01 T00121033  RH  072%=      5-min Rain = 0
KAHS 191105Z 32011KT 01/M03 A3018 RMK A01 T00111032  RH  073%=      5-min Rain = 0
KAHS 191106Z 32012KT 01/M03 A3018 RMK A01 T00111033  RH  073%=      5-min Rain = 0
KAHS 191107Z 33014KT 01/M03 A3018 RMK A01 T00111032  RH  073%=      5-min Rain = 0
KAHS 191108Z 33014KT 01/M03 A3018 RMK A01 T00111032  RH  073%=      5-min Rain = 0
KAHS 191109Z 33011G17KT 01/M03 A3018 RMK A01 T00111032  RH  073%=      5-min Rain = 0
KAHS 191110Z 32015KT 01/M03 A3018 RMK A01 T00111032  RH  073%=      5-min Rain = 0
KAHS 191111Z 33013KT 01/M03 A3018 RMK A01 T00111032  RH  073%=      5-min Rain = 0
KAHS 191112Z 32011KT 01/M03 A3018 RMK A01 T00101032  RH  073%=      5-min Rain = 0
KAHS 191113Z 32014KT 01/M03 A3018 RMK A01 T00101032  RH  074%=      5-min Rain = 0
KAHS 191114Z 32011KT 01/M03 A3018 RMK A01 T00101032  RH  074%=      5-min Rain = 0
KAHS 191115Z 32012KT 01/M03 A3018 RMK A01 T00091031  RH  074%=      5-min Rain = 0
KAHS 191116Z 32015G20KT 01/M03 A3018 RMK A01 T00091032  RH  074%=      5-min Rain = 0
KAHS 191117Z 32014KT 01/M03 A3018 RMK A01 T00101032  RH  073%=      5-min Rain = 0
KAHS 191118Z 32015KT 01/M03 A3018 RMK A01 T00101032  RH  073%=      5-min Rain = 0
KAHS 191119Z 32015KT 01/M03 A3018 RMK A01 T00111033  RH  073%=      5-min Rain = 0
KAHS 191120Z 33016G22KT 01/M03 A3018 RMK A01 T00111033  RH  072%=      5-min Rain = 0
KAHS 191121Z 33016G21KT 01/M03 A3018 RMK A01 T00111034  RH  072%=      5-min Rain = 0
KAHS 191122Z 32013KT 01/M03 A3018 RMK A01 T00121034  RH  072%=      5-min Rain = 0
KAHS 191123Z 33014KT 01/M03 A3018 RMK A01 T00111033  RH  072%=      5-min Rain = 0
KAHS 191124Z 32015KT 01/M03 A3018 RMK A01 T00111033  RH  073%=      5-min Rain = 0
KAHS 191125Z 33015KT 01/M03 A3018 RMK A01 T00101033  RH  073%=      5-min Rain = 0
KAHS 191126Z 33013KT 01/M03 A3018 RMK A01 T00101034  RH  072%=      5-min Rain = 0
KAHS 191127Z 33016KT 01/M03 A3019 RMK A01 T00101034  RH  072%=      5-min Rain = 0
KAHS 191128Z 33016KT 01/M03 A3018 RMK A01 T00101034  RH  072%=      5-min Rain = 0
KAHS 191129Z 32014KT 01/M03 A3019 RMK A01 T00111034  RH  072%=      5-min Rain = 0
KAHS 191130Z 33014KT 01/M03 A3019 RMK A01 T00111033  RH  072%=      5-min Rain = 0
KAHS 191131Z 33013G18KT 01/M03 A3019 RMK A01 T00101033  RH  073%=      5-min Rain = 0
KAHS 191132Z 33015KT 01/M03 A3019 RMK A01 T00101033  RH  073%=      5-min Rain = 0
KAHS 191133Z 32016KT 01/M03 A3019 RMK A01 T00111033  RH  072%=      5-min Rain = 0
KAHS 191134Z 33012KT 01/M03 A3019 RMK A01 T00111033  RH  072%=      5-min Rain = 0
KAHS 191135Z 32013G18KT 01/M03 A3019 RMK A01 T00101033  RH  073%=      5-min Rain = 0
KAHS 191136Z 33015KT 01/M03 A3019 RMK A01 T00101033  RH  073%=      5-min Rain = 0
KAHS 191137Z 32012KT 01/M03 A3019 RMK A01 T00101033  RH  073%=      5-min Rain = 0
KAHS 191138Z 32012KT 01/M03 A3019 RMK A01 T00091032  RH  074%=      5-min Rain = 0
KAHS 191139Z 32012KT 01/M03 A302 RMK A01 T00091032  RH  074%=      5-min Rain = 0
KAHS 191140Z 32012KT 01/M03 A302 RMK A01 T00081031  RH  075%=      5-min Rain = 0
KAHS 191141Z 32011KT 01/M03 A302 RMK A01 T00081031  RH  075%=      5-min Rain = 0
KAHS 191142Z 32013G19KT 01/M03 A302 RMK A01 T00071031  RH  075%=      5-min Rain = 0
KAHS 191143Z 32013G18KT 01/M03 A302 RMK A01 T00071031  RH  076%=      5-min Rain = 0
KAHS 191144Z 32014KT 01/M03 A302 RMK A01 T00071030  RH  076%=      5-min Rain = 0
KAHS 191145Z 31014KT 01/M03 A302 RMK A01 T00071030  RH  076%=      5-min Rain = 0
KAHS 191146Z 32013KT 01/M03 A302 RMK A01 T00061030  RH  076%=      5-min Rain = 0
KAHS 191147Z 32017KT 01/M03 A302 RMK A01 T00061030  RH  076%=      5-min Rain = 0
KAHS 191148Z 32015KT 01/M03 A302 RMK A01 T00071031  RH  075%=      5-min Rain = 0
KAHS 191149Z 32015KT 01/M03 A302 RMK A01 T00071032  RH  076%=      5-min Rain = 0
KAHS 191150Z 32014G19KT 01/M03 A302 RMK A01 T00061032  RH  076%=      5-min Rain = 0
KAHS 191151Z 33016KT 01/M03 A302 RMK A01 T00061032  RH  076%=      5-min Rain = 0
KAHS 191152Z 33013KT 01/M03 A302 RMK A01 T00061032  RH  076%=      5-min Rain = 0
KAHS 191153Z 32015KT 01/M03 A302 RMK A01 T00061032  RH  076%=      5-min Rain = 0
KAHS 191154Z 33013KT 01/M03 A302 RMK A01 T00061033  RH  075%=      5-min Rain = 0
KAHS 191155Z 32012KT 01/M03 A302 RMK A01 T00051033  RH  076%=      5-min Rain = 0
KAHS 191156Z 33015G22KT 01/M03 A302 RMK A01 T00051033  RH  076%=      5-min Rain = 0
KAHS 191157Z 33014G19KT 01/M03 A302 RMK A01 T00051033  RH  076%=      5-min Rain = 0
KAHS 191158Z 33014G19KT 01/M03 A302 RMK A01 T00051033  RH  075%=      5-min Rain = 0
KAHS 191159Z 33014KT 01/M03 A302 RMK A01 T00051033  RH  075%=      5-min Rain = 0
KAHS 191200Z 32013KT 01/M03 A302 RMK A01 T00051034  RH  075%=      5-min Rain = 0
KAHS 191201Z 33014KT 01/M03 A302 RMK A01 T00051034  RH  075%=      5-min Rain = 0
KAHS 191202Z 33013KT 01/M03 A302 RMK A01 T00051034  RH  075%=      5-min Rain = 0
KAHS 191203Z 33015KT 00/M04 A302 RMK A01 T00041035  RH  075%=      5-min Rain = 0
KAHS 191204Z 33015KT 00/M04 A3021 RMK A01 T00041035  RH  075%=      5-min Rain = 0
KAHS 191205Z 33013KT 00/M04 A3021 RMK A01 T00041035  RH  075%=      5-min Rain = 0
KAHS 191206Z 33013KT 00/M04 A3021 RMK A01 T00041035  RH  075%=      5-min Rain = 0
KAHS 191207Z 33015KT 00/M04 A3021 RMK A01 T00041035  RH  075%=      5-min Rain = 0
KAHS 191208Z 33013KT 00/M04 A3021 RMK A01 T00041035  RH  075%=      5-min Rain = 0
KAHS 191209Z 33015G20KT 00/M04 A3021 RMK A01 T00041035  RH  075%=      5-min Rain = 0
KAHS 191210Z 33014KT 00/M04 A3021 RMK A01 T00041035  RH  075%=      5-min Rain = 0
KAHS 191211Z 33013G18KT 00/M04 A3021 RMK A01 T00041036  RH  074%=      5-min Rain = 0
KAHS 191212Z 33011G16KT 00/M04 A3021 RMK A01 T00041036  RH  075%=      5-min Rain = 0
KAHS 191213Z 34013G18KT 00/M04 A3021 RMK A01 T00041036  RH  075%=      5-min Rain = 0
KAHS 191214Z 33012KT 00/M04 A3021 RMK A01 T00041036  RH  075%=      5-min Rain = 0
KAHS 191215Z 33015KT 00/M04 A3021 RMK A01 T00041036  RH  075%=      5-min Rain = 0
KAHS 191216Z 33012KT 00/M04 A3021 RMK A01 T00041036  RH  074%=      5-min Rain = 0
KAHS 191217Z 33010KT 00/M04 A3021 RMK A01 T00041036  RH  075%=      5-min Rain = 0
KAHS 191218Z 33012KT 00/M04 A3021 RMK A01 T00031036  RH  075%=      5-min Rain = 0
KAHS 191219Z 33013KT 00/M04 A3021 RMK A01 T00031036  RH  075%=      5-min Rain = 0
KAHS 191220Z 33013KT 00/M04 A3021 RMK A01 T00041036  RH  075%=      5-min Rain = 0
KAHS 191221Z 34011KT 00/M04 A3022 RMK A01 T00041036  RH  075%=      5-min Rain = 0
KAHS 191222Z 34010KT 00/M04 A3022 RMK A01 T00031036  RH  075%=      5-min Rain = 0
KAHS 191223Z 34011KT 00/M04 A3022 RMK A01 T00031036  RH  075%=      5-min Rain = 0
KAHS 191224Z 34010KT 00/M04 A3022 RMK A01 T00031036  RH  075%=      5-min Rain = 0
KAHS 191225Z 34010KT 00/M04 A3022 RMK A01 T00031036  RH  075%=      5-min Rain = 0
KAHS 191226Z 34010KT 00/M04 A3022 RMK A01 T00021036  RH  075%=      5-min Rain = 0
KAHS 191227Z 34010KT 00/M04 A3022 RMK A01 T00021036  RH  076%=      5-min Rain = 0
KAHS 191228Z 34011KT 00/M04 A3022 RMK A01 T00021037  RH  075%=      5-min Rain = 0
KAHS 191229Z 34011KT 00/M04 A3022 RMK A01 T00021037  RH  075%=      5-min Rain = 0
KAHS 191230Z 34009KT 00/M04 A3022 RMK A01 T00031037  RH  075%=      5-min Rain = 0
KAHS 191231Z 34011KT 00/M04 A3022 RMK A01 T00021037  RH  075%=      5-min Rain = 0
KAHS 191232Z 34009KT 00/M04 A3022 RMK A01 T00021037  RH  075%=      5-min Rain = 0
KAHS 191233Z 34009KT 00/M04 A3022 RMK A01 T00021037  RH  075%=      5-min Rain = 0
KAHS 191234Z 34007KT 00/M04 A3022 RMK A01 T00021037  RH  076%=      5-min Rain = 0
KAHS 191235Z 34007KT 00/M04 A3022 RMK A01 T00011037  RH  076%=      5-min Rain = 0
KAHS 191236Z 34008KT 00/M04 A3022 RMK A01 T00011036  RH  076%=      5-min Rain = 0
KAHS 191237Z 34008KT 00/M04 A3022 RMK A01 T00011037  RH  076%=      5-min Rain = 0
KAHS 191238Z 34007KT 00/M04 A3022 RMK A01 T00011037  RH  076%=      5-min Rain = 0
KAHS 191239Z 34008KT 00/M04 A3022 RMK A01 T00011036  RH  076%=      5-min Rain = 0
KAHS 191240Z 34008KT 00/04 A3022 RMK A01 T00-00-36  RH  076%=      5-min Rain = 0
KAHS 191241Z 35008KT 00/04 A3022 RMK A01 T00-00-37  RH  077%=      5-min Rain = 0
KAHS 191242Z 34009KT 00/04 A3022 RMK A01 T00-00-37  RH  076%=      5-min Rain = 0
KAHS 191243Z 34007KT 00/04 A3022 RMK A01 T00-00-37  RH  076%=      5-min Rain = 0
KAHS 191244Z 34007KT 00/04 A3022 RMK A01 T00-00-36  RH  077%=      5-min Rain = 0
KAHS 191245Z 34007KT M00/M04 A3022 RMK A01 T10011036  RH  077%=      5-min Rain = 0
KAHS 191246Z 34007KT M00/M04 A3022 RMK A01 T10021036  RH  078%=      5-min Rain = 0
KAHS 191247Z 33007KT M00/M04 A3022 RMK A01 T10021036  RH  078%=      5-min Rain = 0
KAHS 191248Z 33007KT M00/M04 A3022 RMK A01 T10021036  RH  078%=      5-min Rain = 0
KAHS 191249Z 33008KT M00/M04 A3022 RMK A01 T10021036  RH  078%=      5-min Rain = 0
KAHS 191250Z 33007KT M00/M04 A3022 RMK A01 T10021036  RH  078%=      5-min Rain = 0
KAHS 191251Z 33008KT M00/M04 A3023 RMK A01 T10021036  RH  078%=      5-min Rain = 0
KAHS 191252Z 33009KT M00/M04 A3023 RMK A01 T10021036  RH  078%=      5-min Rain = 0
KAHS 191253Z 34008KT M00/M04 A3023 RMK A01 T10021036  RH  078%=      5-min Rain = 0
KAHS 191254Z 33009KT M00/M04 A3023 RMK A01 T10021036  RH  078%=      5-min Rain = 0
KAHS 191255Z 34009KT M00/M04 A3023 RMK A01 T10021036  RH  078%=      5-min Rain = 0
KAHS 191256Z 34008KT M00/M04 A3023 RMK A01 T10011036  RH  077%=      5-min Rain = 0
KAHS 191257Z 33008KT M00/M04 A3023 RMK A01 T10011036  RH  077%=      5-min Rain = 0
KAHS 191258Z 33007KT M00/M04 A3023 RMK A01 T10021036  RH  078%=      5-min Rain = 0
KAHS 191259Z 34008KT M00/M04 A3023 RMK A01 T10021036  RH  078%=      5-min Rain = 0
KAHS 191300Z 34009KT M00/M04 A3023 RMK A01 T10031036  RH  078%=      5-min Rain = 0
KAHS 191301Z 33010KT M00/M04 A3023 RMK A01 T10031036  RH  078%=      5-min Rain = 0
KAHS 191302Z 33009KT M00/M04 A3023 RMK A01 T10021037  RH  078%=      5-min Rain = 0
KAHS 191303Z 34009KT M00/M04 A3023 RMK A01 T10021037  RH  077%=      5-min Rain = 0
KAHS 191304Z 33008KT M00/M04 A3023 RMK A01 T10021037  RH  077%=      5-min Rain = 0
KAHS 191305Z 33008KT M00/M04 A3023 RMK A01 T10021037  RH  078%=      5-min Rain = 0
KAHS 191306Z 34008KT M00/M04 A3023 RMK A01 T10031037  RH  078%=      5-min Rain = 0
KAHS 191307Z 33008KT M00/M04 A3023 RMK A01 T10031037  RH  078%=      5-min Rain = 0
KAHS 191308Z 33009KT M00/M04 A3023 RMK A01 T10021037  RH  078%=      5-min Rain = 0
KAHS 191309Z 33009KT M00/M04 A3023 RMK A01 T10021037  RH  078%=      5-min Rain = 0
KAHS 191310Z 32008KT M00/M04 A3023 RMK A01 T10021037  RH  077%=      5-min Rain = 0
KAHS 191311Z 33008KT M00/M04 A3023 RMK A01 T10031037  RH  078%=      5-min Rain = 0
KAHS 191312Z 32008KT M00/M04 A3023 RMK A01 T10031037  RH  078%=      5-min Rain = 0
KAHS 191313Z 32008KT M00/M04 A3023 RMK A01 T10031037  RH  078%=      5-min Rain = 0
KAHS 191314Z 32007KT M00/M04 A3023 RMK A01 T10031036  RH  078%=      5-min Rain = 0
KAHS 191315Z 32007KT M00/M04 A3023 RMK A01 T10041037  RH  079%=      5-min Rain = 0
KAHS 191316Z 33007KT M01/M04 A3023 RMK A01 T10051037  RH  079%=      5-min Rain = 0
KAHS 191317Z 33008KT M01/M04 A3023 RMK A01 T10051037  RH  079%=      5-min Rain = 0
KAHS 191318Z 33007KT M00/M04 A3023 RMK A01 T10041036  RH  079%=      5-min Rain = 0
KAHS 191319Z 33007KT M00/M04 A3023 RMK A01 T10031036  RH  078%=      5-min Rain = 0
KAHS 191320Z 33006KT M00/M04 A3023 RMK A01 T10041037  RH  079%=      5-min Rain = 0
KAHS 191321Z 33007KT M01/M04 A3023 RMK A01 T10051037  RH  079%=      5-min Rain = 0
KAHS 191322Z 33008KT M00/M04 A3024 RMK A01 T10041036  RH  079%=      5-min Rain = 0
KAHS 191323Z 33008KT M00/M04 A3024 RMK A01 T10041037  RH  079%=      5-min Rain = 0
KAHS 191324Z 33008KT M00/M04 A3024 RMK A01 T10031036  RH  078%=      5-min Rain = 0
KAHS 191325Z 33010KT M00/M04 A3024 RMK A01 T10031036  RH  078%=      5-min Rain = 0
KAHS 191326Z 33008KT M00/M04 A3024 RMK A01 T10031037  RH  078%=      5-min Rain = 0
KAHS 191327Z 32007G12KT M00/M04 A3024 RMK A01 T10031037  RH  078%=      5-min Rain = 0
KAHS 191328Z 33008KT M00/M04 A3024 RMK A01 T10031037  RH  078%=      5-min Rain = 0
KAHS 191329Z 32008KT M00/M04 A3024 RMK A01 T10031037  RH  078%=      5-min Rain = 0
KAHS 191330Z 33007KT M00/M04 A3024 RMK A01 T10041037  RH  078%=      5-min Rain = 0
KAHS 191331Z 33009KT M00/M04 A3024 RMK A01 T10041036  RH  078%=      5-min Rain = 0
KAHS 191332Z 33008KT M00/M04 A3024 RMK A01 T10031037  RH  078%=      5-min Rain = 0
KAHS 191333Z 33009KT M00/M04 A3024 RMK A01 T10041037  RH  078%=      5-min Rain = 0
KAHS 191334Z 33008KT M00/M04 A3024 RMK A01 T10041037  RH  079%=      5-min Rain = 0
KAHS 191335Z 33009KT M00/M04 A3024 RMK A01 T10041037  RH  078%=      5-min Rain = 0
KAHS 191336Z 33009KT M00/M04 A3024 RMK A01 T10031037  RH  078%=      5-min Rain = 0
KAHS 191337Z 33008KT M00/M04 A3024 RMK A01 T10031037  RH  077%=      5-min Rain = 0
KAHS 191338Z 33008KT M00/M04 A3024 RMK A01 T10031037  RH  078%=      5-min Rain = 0
KAHS 191339Z 32008KT M00/M04 A3024 RMK A01 T10031037  RH  078%=      5-min Rain = 0
KAHS 191340Z 33008KT M00/M04 A3024 RMK A01 T10031037  RH  078%=      5-min Rain = 0
KAHS 191341Z 32007KT M00/M04 A3024 RMK A01 T10031037  RH  078%=      5-min Rain = 0
KAHS 191342Z 32007KT M00/M04 A3024 RMK A01 T10041037  RH  078%=      5-min Rain = 0
KAHS 191343Z 32007KT M00/M04 A3024 RMK A01 T10041037  RH  079%=      5-min Rain = 0
KAHS 191344Z 32006KT M00/M04 A3024 RMK A01 T10041037  RH  078%=      5-min Rain = 0
KAHS 191345Z 33007KT M01/M04 A3025 RMK A01 T10051037  RH  079%=      5-min Rain = 0
KAHS 191346Z 33008KT M01/M04 A3025 RMK A01 T10051037  RH  079%=      5-min Rain = 0
KAHS 191347Z 33009KT M00/M04 A3025 RMK A01 T10041037  RH  078%=      5-min Rain = 0
KAHS 191348Z 32008KT M00/M04 A3025 RMK A01 T10031037  RH  078%=      5-min Rain = 0
KAHS 191349Z 32008KT M00/M04 A3025 RMK A01 T10031037  RH  078%=      5-min Rain = 0
KAHS 191350Z 33008KT M00/M04 A3025 RMK A01 T10031037  RH  078%=      5-min Rain = 0
KAHS 191351Z 33008KT M00/M04 A3025 RMK A01 T10031036  RH  078%=      5-min Rain = 0
KAHS 191352Z 33009KT M00/M04 A3025 RMK A01 T10021037  RH  077%=      5-min Rain = 0
KAHS 191353Z 32008KT M00/M04 A3025 RMK A01 T10011037  RH  077%=      5-min Rain = 0
KAHS 191354Z 32009KT M00/M04 A3025 RMK A01 T10021036  RH  077%=      5-min Rain = 0
KAHS 191355Z 32008KT M00/M04 A3025 RMK A01 T10021036  RH  077%=      5-min Rain = 0
KAHS 191356Z 33008KT M00/M04 A3025 RMK A01 T10011036  RH  077%=      5-min Rain = 0
KAHS 191357Z 33008KT M00/M04 A3025 RMK A01 T10011036  RH  077%=      5-min Rain = 0
KAHS 191358Z 33008KT M00/M04 A3025 RMK A01 T10011036  RH  077%=      5-min Rain = 0
KAHS 191359Z 33007KT M00/M04 A3025 RMK A01 T10011036  RH  077%=      5-min Rain = 0
KAHS 191400Z 32007KT 00/04 A3025 RMK A01 T00-00-36  RH  077%=      5-min Rain = 0
KAHS 191401Z 32007KT 00/04 A3025 RMK A01 T00-00-35  RH  077%=      5-min Rain = 0
KAHS 191402Z 32008KT 00/04 A3025 RMK A01 T00-00-35  RH  077%=      5-min Rain = 0
KAHS 191403Z 32009KT 00/04 A3025 RMK A01 T00000-35  RH  077%=      5-min Rain = 0
KAHS 191404Z 32010KT 00/M04 A3025 RMK A01 T00011035  RH  077%=      5-min Rain = 0
KAHS 191405Z 32008KT 00/M04 A3025 RMK A01 T00011035  RH  077%=      5-min Rain = 0
KAHS 191406Z 32007KT 00/M04 A3026 RMK A01 T00011035  RH  077%=      5-min Rain = 0
KAHS 191407Z 32007KT 00/M04 A3026 RMK A01 T00011035  RH  077%=      5-min Rain = 0
KAHS 191408Z 32009KT 00/M04 A3025 RMK A01 T00011035  RH  077%=      5-min Rain = 0
KAHS 191409Z 32009KT 00/M04 A3025 RMK A01 T00021035  RH  076%=      5-min Rain = 0
KAHS 191410Z 33010KT 00/M04 A3025 RMK A01 T00031035  RH  076%=      5-min Rain = 0
KAHS 191411Z 32009KT 00/M04 A3025 RMK A01 T00031035  RH  076%=      5-min Rain = 0
KAHS 191412Z 32008KT 00/M03 A3025 RMK A01 T00041034  RH  076%=      5-min Rain = 0
KAHS 191413Z 32008KT 00/M03 A3026 RMK A01 T00041034  RH  076%=      5-min Rain = 0
KAHS 191414Z 32009KT 00/M03 A3026 RMK A01 T00041034  RH  076%=      5-min Rain = 0
KAHS 191415Z 32009KT 01/M03 A3026 RMK A01 T00051034  RH  075%=      5-min Rain = 0
KAHS 191416Z 31009KT 01/M03 A3026 RMK A01 T00051033  RH  075%=      5-min Rain = 0
KAHS 191417Z 31009KT 01/M03 A3026 RMK A01 T00051033  RH  075%=      5-min Rain = 0
KAHS 191418Z 31010KT 01/M03 A3026 RMK A01 T00051033  RH  075%=      5-min Rain = 0
KAHS 191419Z 32007KT 01/M03 A3026 RMK A01 T00061033  RH  075%=      5-min Rain = 0
KAHS 191420Z 32007KT 01/M03 A3027 RMK A01 T00061033  RH  075%=      5-min Rain = 0
KAHS 191421Z 32008KT 01/M03 A3027 RMK A01 T00061032  RH  076%=      5-min Rain = 0
KAHS 191422Z 32009KT 01/M03 A3027 RMK A01 T00061033  RH  075%=      5-min Rain = 0
KAHS 191423Z 31008KT 01/M03 A3027 RMK A01 T00061033  RH  075%=      5-min Rain = 0
KAHS 191424Z 31008KT 01/M03 A3027 RMK A01 T00061032  RH  075%=      5-min Rain = 0
KAHS 191425Z 31008KT 01/M03 A3027 RMK A01 T00071032  RH  075%=      5-min Rain = 0
KAHS 191426Z 31009KT 01/M03 A3027 RMK A01 T00071032  RH  075%=      5-min Rain = 0
KAHS 191427Z 31008KT 01/M03 A3027 RMK A01 T00071032  RH  075%=      5-min Rain = 0
KAHS 191428Z 32008KT 01/M03 A3028 RMK A01 T00071031  RH  075%=      5-min Rain = 0
KAHS 191429Z 31008KT 01/M03 A3028 RMK A01 T00081032  RH  075%=      5-min Rain = 0
KAHS 191430Z 31008KT 01/M03 A3028 RMK A01 T00081032  RH  075%=      5-min Rain = 0
KAHS 191431Z 31007KT 01/M03 A3028 RMK A01 T00081031  RH  075%=      5-min Rain = 0
KAHS 191432Z 31007KT 01/M03 A3028 RMK A01 T00091031  RH  075%=      5-min Rain = 0
KAHS 191433Z 31008KT 01/M03 A3028 RMK A01 T00091031  RH  075%=      5-min Rain = 0
KAHS 191434Z 32007KT 01/M03 A3028 RMK A01 T00091031  RH  075%=      5-min Rain = 0
KAHS 191435Z 31008KT 01/M03 A3028 RMK A01 T00101030  RH  075%=      5-min Rain = 0
KAHS 191436Z 31008KT 01/M03 A3029 RMK A01 T00101030  RH  075%=      5-min Rain = 0
KAHS 191437Z 30009KT 01/M03 A3029 RMK A01 T00101030  RH  075%=      5-min Rain = 0
KAHS 191438Z 30009KT 01/M03 A3029 RMK A01 T00101030  RH  074%=      5-min Rain = 0
KAHS 191439Z 31009KT 01/M03 A3029 RMK A01 T00111030  RH  074%=      5-min Rain = 0
KAHS 191440Z 32008KT 01/M03 A3029 RMK A01 T00111030  RH  074%=      5-min Rain = 0
KAHS 191441Z 31009KT 01/M03 A3029 RMK A01 T00121029  RH  074%=      5-min Rain = 0
KAHS 191442Z 32009KT 01/M03 A3029 RMK A01 T00121029  RH  074%=      5-min Rain = 0
KAHS 191443Z 32009KT 01/M03 A3029 RMK A01 T00121030  RH  074%=      5-min Rain = 0
KAHS 191444Z 32010KT 01/M03 A3029 RMK A01 T00121030  RH  074%=      5-min Rain = 0
KAHS 191445Z 32009KT 01/M03 A3029 RMK A01 T00131030  RH  073%=      5-min Rain = 0
KAHS 191446Z 32010KT 01/M03 A3029 RMK A01 T00131030  RH  073%=      5-min Rain = 0
KAHS 191447Z 32011KT 01/M03 A3029 RMK A01 T00131031  RH  073%=      5-min Rain = 0
KAHS 191448Z 32011KT 01/M03 A3029 RMK A01 T00141030  RH  073%=      5-min Rain = 0
KAHS 191449Z 32010KT 01/M03 A303 RMK A01 T00141030  RH  073%=      5-min Rain = 0
KAHS 191450Z 33009KT 01/M03 A303 RMK A01 T00141030  RH  073%=      5-min Rain = 0
KAHS 191451Z 33008KT 02/M03 A303 RMK A01 T00151029  RH  073%=      5-min Rain = 0
KAHS 191452Z 32011KT 02/M03 A303 RMK A01 T00151028  RH  073%=      5-min Rain = 0
KAHS 191453Z 33009KT 02/M03 A303 RMK A01 T00161029  RH  072%=      5-min Rain = 0
KAHS 191454Z 33008KT 02/M03 A303 RMK A01 T00161028  RH  073%=      5-min Rain = 0
KAHS 191455Z 32007KT 02/M03 A303 RMK A01 T00161028  RH  073%=      5-min Rain = 0
KAHS 191456Z 33009KT 02/M03 A303 RMK A01 T00171027  RH  073%=      5-min Rain = 0
KAHS 191457Z 33009KT 02/M03 A303 RMK A01 T00171028  RH  072%=      5-min Rain = 0
KAHS 191458Z 33009KT 02/M03 A303 RMK A01 T00171029  RH  072%=      5-min Rain = 0
KAHS 191459Z 33010KT 02/M03 A303 RMK A01 T00171028  RH  072%=      5-min Rain = 0
KAHS 191500Z 33012KT 02/M03 A303 RMK A01 T00171029  RH  071%=      5-min Rain = 0
KAHS 191501Z 32011KT 02/M03 A303 RMK A01 T00181030  RH  071%=      5-min Rain = 0
KAHS 191502Z 33011KT 02/M03 A3031 RMK A01 T00181029  RH  071%=      5-min Rain = 0
KAHS 191503Z 34012KT 02/M03 A3031 RMK A01 T00181029  RH  071%=      5-min Rain = 0
KAHS 191504Z 32011KT 02/M03 A3031 RMK A01 T00181030  RH  071%=      5-min Rain = 0
KAHS 191505Z 33012KT 02/M03 A3031 RMK A01 T00191029  RH  070%=      5-min Rain = 0
KAHS 191506Z 33014KT 02/M03 A3031 RMK A01 T00191030  RH  070%=      5-min Rain = 0
KAHS 191507Z 33012KT 02/M03 A3031 RMK A01 T00191031  RH  069%=      5-min Rain = 0
KAHS 191508Z 32011KT 02/M03 A3031 RMK A01 T00191030  RH  070%=      5-min Rain = 0
KAHS 191509Z 33010KT 02/M03 A3031 RMK A01 T00201028  RH  070%=      5-min Rain = 0
KAHS 191510Z 33010KT 02/M03 A3031 RMK A01 T00211027  RH  071%=      5-min Rain = 0
KAHS 191511Z 32010KT 02/M03 A3031 RMK A01 T00221027  RH  070%=      5-min Rain = 0
KAHS 191512Z 32009KT 02/M03 A3031 RMK A01 T00231026  RH  070%=      5-min Rain = 0
KAHS 191513Z 33010KT 02/M03 A3031 RMK A01 T00231028  RH  069%=      5-min Rain = 0
KAHS 191514Z 33008KT 02/M03 A3031 RMK A01 T00231028  RH  069%=      5-min Rain = 0
KAHS 191515Z 34010KT 02/M03 A3031 RMK A01 T00241027  RH  069%=      5-min Rain = 0
KAHS 191516Z 34010KT 03/M03 A3031 RMK A01 T00251027  RH  069%=      5-min Rain = 0
KAHS 191517Z 35010KT 03/M03 A3031 RMK A01 T00251028  RH  068%=      5-min Rain = 0
KAHS 191518Z 34011KT 03/M03 A3032 RMK A01 T00251028  RH  068%=      5-min Rain = 0
KAHS 191519Z 33011KT 03/M03 A3032 RMK A01 T00261028  RH  068%=      5-min Rain = 0
KAHS 191520Z 34010KT 03/M03 A3032 RMK A01 T00271027  RH  068%=      5-min Rain = 0
KAHS 191521Z 35012G17KT 03/M03 A3032 RMK A01 T00281027  RH  067%=      5-min Rain = 0
KAHS 191522Z 34010KT 03/M03 A3032 RMK A01 T00291027  RH  067%=      5-min Rain = 0
KAHS 191523Z 34010G17KT 03/M03 A3032 RMK A01 T00301026  RH  067%=      5-min Rain = 0
KAHS 191524Z 33016KT 03/M03 A3032 RMK A01 T00291029  RH  066%=      5-min Rain = 0
KAHS 191525Z 34016KT 03/M03 A3032 RMK A01 T00291031  RH  065%=      5-min Rain = 0
KAHS 191526Z 34018KT 03/M03 A3032 RMK A01 T00291032  RH  065%=      5-min Rain = 0
KAHS 191527Z 34015KT 03/M03 A3032 RMK A01 T00291032  RH  065%=      5-min Rain = 0
KAHS 191528Z 34013KT 03/M03 A3032 RMK A01 T00291031  RH  065%=      5-min Rain = 0
KAHS 191529Z 35014KT 03/M03 A3032 RMK A01 T00301029  RH  065%=      5-min Rain = 0
KAHS 191530Z 35014KT 03/M03 A3032 RMK A01 T00311030  RH  064%=      5-min Rain = 0
KAHS 191531Z 34013G19KT 03/M03 A3032 RMK A01 T00321029  RH  064%=      5-min Rain = 0
KAHS 191532Z 35015KT 03/M03 A3032 RMK A01 T00311032  RH  063%=      5-min Rain = 0
KAHS 191533Z 35016KT 03/M03 A3033 RMK A01 T00321031  RH  063%=      5-min Rain = 0
KAHS 191534Z 34014KT 03/M03 A3032 RMK A01 T00331031  RH  063%=      5-min Rain = 0
KAHS 191535Z 34011KT 03/M03 A3033 RMK A01 T00331029  RH  064%=      5-min Rain = 0
KAHS 191536Z 33012G17KT 03/M03 A3032 RMK A01 T00341027  RH  064%=      5-min Rain = 0
KAHS 191537Z 34018KT 03/M03 A3032 RMK A01 T00341030  RH  063%=      5-min Rain = 0
KAHS 191538Z 34015KT 03/M03 A3032 RMK A01 T00331034  RH  061%=      5-min Rain = 0
KAHS 191539Z 35011KT 03/M03 A3033 RMK A01 T00341032  RH  062%=      5-min Rain = 0
KAHS 191540Z 34012KT 04/M03 A3033 RMK A01 T00351030  RH  063%=      5-min Rain = 0
KAHS 191541Z 35014KT 04/M03 A3033 RMK A01 T00361030  RH  062%=      5-min Rain = 0
KAHS 191542Z 35016KT 04/M03 A3033 RMK A01 T00351032  RH  061%=      5-min Rain = 0
KAHS 191543Z 35014KT 04/M03 A3033 RMK A01 T00351032  RH  061%=      5-min Rain = 0
KAHS 191544Z 36015G22KT 04/M03 A3033 RMK A01 T00361030  RH  062%=      5-min Rain = 0
KAHS 191545Z 00015G22KT 04/M03 A3033 RMK A01 T00361031  RH  061%=      5-min Rain = 0
KAHS 191546Z 34019KT 04/M03 A3033 RMK A01 T00361031  RH  061%=      5-min Rain = 0
KAHS 191547Z 35015KT 04/M03 A3033 RMK A01 T00361032  RH  061%=      5-min Rain = 0
KAHS 191548Z 35012KT 04/M03 A3033 RMK A01 T00371030  RH  061%=      5-min Rain = 0
KAHS 191549Z 36015KT 04/M03 A3033 RMK A01 T00381030  RH  061%=      5-min Rain = 0
KAHS 191550Z 35016KT 04/M03 A3033 RMK A01 T00371032  RH  061%=      5-min Rain = 0
KAHS 191551Z 35013KT 04/M03 A3033 RMK A01 T00371032  RH  061%=      5-min Rain = 0
KAHS 191552Z 35014KT 04/M03 A3033 RMK A01 T00381031  RH  061%=      5-min Rain = 0
KAHS 191553Z 35013KT 04/M03 A3033 RMK A01 T00381031  RH  061%=      5-min Rain = 0
KAHS 191554Z 35013KT 04/M03 A3033 RMK A01 T00391029  RH  061%=      5-min Rain = 0
KAHS 191555Z 35013KT 04/M03 A3033 RMK A01 T00391030  RH  061%=      5-min Rain = 0
KAHS 191556Z 34013G18KT 04/M03 A3033 RMK A01 T00401028  RH  061%=      5-min Rain = 0
KAHS 191557Z 34016KT 04/M03 A3033 RMK A01 T00391030  RH  061%=      5-min Rain = 0
KAHS 191558Z 35012KT 04/M03 A3034 RMK A01 T00391031  RH  060%=      5-min Rain = 0
KAHS 191559Z 34010KT 04/M03 A3034 RMK A01 T00411027  RH  061%=      5-min Rain = 0
KAHS 191600Z 35013KT 04/M03 A3034 RMK A01 T00411028  RH  061%=      5-min Rain = 0
KAHS 191601Z 34011KT 04/M03 A3034 RMK A01 T00411029  RH  060%=      5-min Rain = 0
KAHS 191602Z 35014KT 04/M03 A3034 RMK A01 T00421027  RH  061%=      5-min Rain = 0
KAHS 191603Z 35013KT 04/M03 A3034 RMK A01 T00421030  RH  060%=      5-min Rain = 0
KAHS 191604Z 34013KT 04/M03 A3034 RMK A01 T00421029  RH  060%=      5-min Rain = 0
KAHS 191605Z 34015KT 04/M03 A3034 RMK A01 T00421028  RH  060%=      5-min Rain = 0
KAHS 191606Z 34015KT 04/M03 A3034 RMK A01 T00411030  RH  060%=      5-min Rain = 0
KAHS 191607Z 34013G18KT 04/M03 A3034 RMK A01 T00411028  RH  061%=      5-min Rain = 0
KAHS 191608Z 34015KT 04/M03 A3034 RMK A01 T00421029  RH  060%=      5-min Rain = 0
KAHS 191609Z 34014G19KT 04/M03 A3034 RMK A01 T00411030  RH  060%=      5-min Rain = 0
KAHS 191610Z 34013G19KT 04/M03 A3034 RMK A01 T00421028  RH  060%=      5-min Rain = 0
KAHS 191611Z 35010G15KT 04/M03 A3034 RMK A01 T00441027  RH  060%=      5-min Rain = 0
KAHS 191612Z 35011KT 05/M03 A3034 RMK A01 T00451027  RH  060%=      5-min Rain = 0
KAHS 191613Z 35012KT 05/M03 A3034 RMK A01 T00461028  RH  059%=      5-min Rain = 0
KAHS 191614Z 35011KT 05/M03 A3034 RMK A01 T00461027  RH  059%=      5-min Rain = 0
KAHS 191615Z 00011KT 05/M03 A3034 RMK A01 T00471027  RH  059%=      5-min Rain = 0
KAHS 191616Z 36012KT 05/M03 A3034 RMK A01 T00471027  RH  058%=      5-min Rain = 0
KAHS 191617Z 35010KT 05/M03 A3034 RMK A01 T00481026  RH  059%=      5-min Rain = 0
KAHS 191618Z 35013KT 05/M03 A3034 RMK A01 T00491026  RH  058%=      5-min Rain = 0
KAHS 191619Z 35015KT 05/M03 A3034 RMK A01 T00471029  RH  058%=      5-min Rain = 0
KAHS 191620Z 35016KT 05/M03 A3034 RMK A01 T00471030  RH  057%=      5-min Rain = 0
KAHS 191621Z 35014G19KT 05/M03 A3034 RMK A01 T00461029  RH  058%=      5-min Rain = 0
KAHS 191622Z 36016KT 05/M03 A3034 RMK A01 T00471029  RH  058%=      5-min Rain = 0
KAHS 191623Z 00018KT 05/M03 A3034 RMK A01 T00461031  RH  057%=      5-min Rain = 0
KAHS 191624Z 00015KT 05/M03 A3034 RMK A01 T00451032  RH  057%=      5-min Rain = 0
KAHS 191625Z 36014KT 05/M03 A3034 RMK A01 T00461031  RH  058%=      5-min Rain = 0
KAHS 191626Z 36011G16KT 05/M03 A3034 RMK A01 T00461032  RH  057%=      5-min Rain = 0
KAHS 191627Z 01014KT 05/M03 A3034 RMK A01 T00471028  RH  058%=      5-min Rain = 0
KAHS 191628Z 01012KT 05/M03 A3034 RMK A01 T00481030  RH  057%=      5-min Rain = 0
KAHS 191629Z 35015KT 05/M03 A3034 RMK A01 T00481030  RH  057%=      5-min Rain = 0
KAHS 191630Z 36012G19KT 05/M03 A3034 RMK A01 T00471031  RH  057%=      5-min Rain = 0
KAHS 191631Z 36018G23KT 05/M03 A3034 RMK A01 T00481031  RH  057%=      5-min Rain = 0
KAHS 191632Z 35016G22KT 05/M03 A3034 RMK A01 T00471033  RH  056%=      5-min Rain = 0
KAHS 191633Z 35014G19KT 05/M03 A3034 RMK A01 T00471032  RH  057%=      5-min Rain = 0
KAHS 191634Z 35017KT 05/M03 A3034 RMK A01 T00471033  RH  056%=      5-min Rain = 0
KAHS 191635Z 36015KT 05/M03 A3034 RMK A01 T00461033  RH  057%=      5-min Rain = 0
KAHS 191636Z 36012KT 05/M03 A3034 RMK A01 T00471032  RH  057%=      5-min Rain = 0
KAHS 191637Z 01013G18KT 05/M03 A3034 RMK A01 T00491028  RH  057%=      5-min Rain = 0
KAHS 191638Z 01013KT 05/M03 A3034 RMK A01 T00501029  RH  056%=      5-min Rain = 0
KAHS 191639Z 00016KT 05/M03 A3034 RMK A01 T00501031  RH  056%=      5-min Rain = 0
KAHS 191640Z 01016KT 05/M03 A3034 RMK A01 T00491033  RH  055%=      5-min Rain = 0
KAHS 191641Z 01014KT 05/M03 A3034 RMK A01 T00481034  RH  056%=      5-min Rain = 0
KAHS 191642Z 01012KT 05/M03 A3034 RMK A01 T00501029  RH  056%=      5-min Rain = 0
KAHS 191643Z 01014KT 05/M03 A3034 RMK A01 T00511030  RH  056%=      5-min Rain = 0
KAHS 191644Z 01015KT 05/M03 A3034 RMK A01 T00501032  RH  055%=      5-min Rain = 0
KAHS 191645Z 00013G18KT 05/M03 A3034 RMK A01 T00511031  RH  056%=      5-min Rain = 0
KAHS 191646Z 01013KT 05/M03 A3034 RMK A01 T00521029  RH  056%=      5-min Rain = 0
KAHS 191647Z 00014KT 05/M03 A3034 RMK A01 T00521030  RH  055%=      5-min Rain = 0
KAHS 191648Z 01012KT 05/M03 A3034 RMK A01 T00511032  RH  055%=      5-min Rain = 0
KAHS 191649Z 01013KT 05/M03 A3034 RMK A01 T00511031  RH  055%=      5-min Rain = 0
KAHS 191650Z 00014KT 05/M03 A3034 RMK A01 T00511031  RH  055%=      5-min Rain = 0
KAHS 191651Z 01015KT 05/M03 A3034 RMK A01 T00511031  RH  055%=      5-min Rain = 0
KAHS 191652Z 36013KT 05/M03 A3034 RMK A01 T00531029  RH  056%=      5-min Rain = 0
KAHS 191653Z 36011KT 05/M03 A3034 RMK A01 T00531030  RH  055%=      5-min Rain = 0
KAHS 191654Z 35013KT 06/M03 A3034 RMK A01 T00551027  RH  055%=      5-min Rain = 0
KAHS 191655Z 36013G18KT 06/M03 A3034 RMK A01 T00551029  RH  055%=      5-min Rain = 0
KAHS 191656Z 01015KT 06/M03 A3034 RMK A01 T00551028  RH  055%=      5-min Rain = 0
KAHS 191657Z 00017KT 05/M03 A3034 RMK A01 T00541032  RH  054%=      5-min Rain = 0
KAHS 191658Z 00017KT 05/M03 A3034 RMK A01 T00521033  RH  054%=      5-min Rain = 0
KAHS 191659Z 36014KT 05/M03 A3034 RMK A01 T00531030  RH  055%=      5-min Rain = 0
KAHS 191700Z 35014KT 05/M03 A3034 RMK A01 T00541029  RH  055%=      5-min Rain = 0
KAHS 191701Z 35013G18KT 06/M03 A3034 RMK A01 T00551029  RH  055%=      5-min Rain = 0
KAHS 191702Z 35014G19KT 06/M03 A3034 RMK A01 T00551029  RH  055%=      5-min Rain = 0
KAHS 191703Z 34015KT 06/M03 A3034 RMK A01 T00551030  RH  054%=      5-min Rain = 0
KAHS 191704Z 35013KT 06/M03 A3034 RMK A01 T00551030  RH  054%=      5-min Rain = 0
KAHS 191705Z 35013KT 06/M03 A3034 RMK A01 T00551029  RH  055%=      5-min Rain = 0
KAHS 191706Z 34014KT 06/M03 A3034 RMK A01 T00561028  RH  055%=      5-min Rain = 0
KAHS 191707Z 35014KT 06/M03 A3034 RMK A01 T00561029  RH  054%=      5-min Rain = 0
KAHS 191708Z 36011G16KT 06/M03 A3034 RMK A01 T00551031  RH  054%=      5-min Rain = 0
KAHS 191709Z 35010KT 06/M03 A3034 RMK A01 T00561028  RH  055%=      5-min Rain = 0
KAHS 191710Z 35010KT 06/M03 A3034 RMK A01 T00581026  RH  055%=      5-min Rain = 0
KAHS 191711Z 35011KT 06/M03 A3034 RMK A01 T00591025  RH  055%=      5-min Rain = 0
KAHS 191712Z 00015KT 06/M03 A3034 RMK A01 T00591028  RH  053%=      5-min Rain = 0
KAHS 191713Z 00012KT 06/M03 A3034 RMK A01 T00581028  RH  054%=      5-min Rain = 0
KAHS 191714Z 01011KT 06/M03 A3034 RMK A01 T00591025  RH  054%=      5-min Rain = 0
KAHS 191715Z 01012KT 06/M03 A3034 RMK A01 T00601026  RH  054%=      5-min Rain = 0
KAHS 191716Z 01012KT 06/M03 A3034 RMK A01 T00611026  RH  054%=      5-min Rain = 0
KAHS 191717Z 01012KT 06/M03 A3034 RMK A01 T00591030  RH  053%=      5-min Rain = 0
KAHS 191718Z 01010KT 06/M03 A3034 RMK A01 T00591028  RH  054%=      5-min Rain = 0
KAHS 191719Z 03012KT 06/M03 A3034 RMK A01 T00591028  RH  053%=      5-min Rain = 0
KAHS 191720Z 02012KT 06/M03 A3034 RMK A01 T00581030  RH  053%=      5-min Rain = 0
KAHS 191721Z 00008KT 06/M03 A3034 RMK A01 T00581029  RH  054%=      5-min Rain = 0
KAHS 191722Z 00008KT 06/M02 A3034 RMK A01 T00611024  RH  055%=      5-min Rain = 0
KAHS 191723Z 01011KT 06/M03 A3034 RMK A01 T00611027  RH  053%=      5-min Rain = 0
KAHS 191724Z 36008KT 06/M03 A3034 RMK A01 T00601029  RH  053%=      5-min Rain = 0
KAHS 191725Z 01010KT 06/M03 A3034 RMK A01 T00601027  RH  054%=      5-min Rain = 0
KAHS 191726Z 35009KT 06/M02 A3034 RMK A01 T00641021  RH  055%=      5-min Rain = 0
KAHS 191727Z 01009KT 07/M02 A3034 RMK A01 T00661021  RH  054%=      5-min Rain = 0
KAHS 191728Z 01012KT 07/M03 A3034 RMK A01 T00651026  RH  052%=      5-min Rain = 0
KAHS 191729Z 36009KT 06/M03 A3034 RMK A01 T00631028  RH  052%=      5-min Rain = 0
KAHS 191730Z 00011G16KT 06/M02 A3034 RMK A01 T00641024  RH  053%=      5-min Rain = 0
KAHS 191731Z 01010KT 07/M03 A3034 RMK A01 T00651025  RH  053%=      5-min Rain = 0
KAHS 191732Z 00008KT 07/M02 A3034 RMK A01 T00671021  RH  053%=      5-min Rain = 0
KAHS 191733Z 01009KT 07/M03 A3034 RMK A01 T00661027  RH  052%=      5-min Rain = 0
KAHS 191734Z 01010KT 06/M03 A3034 RMK A01 T00631029  RH  052%=      5-min Rain = 0
KAHS 191735Z 00008KT 06/M03 A3034 RMK A01 T00631027  RH  053%=      5-min Rain = 0
KAHS 191736Z 35013KT 06/M03 A3034 RMK A01 T00641025  RH  053%=      5-min Rain = 0
KAHS 191737Z 35011KT 06/M03 A3034 RMK A01 T00641028  RH  052%=      5-min Rain = 0
KAHS 191738Z 33015KT 06/M03 A3034 RMK A01 T00641027  RH  052%=      5-min Rain = 0
KAHS 191739Z 36013KT 06/M03 A3034 RMK A01 T00641027  RH  052%=      5-min Rain = 0
KAHS 191740Z 01013KT 07/M03 A3034 RMK A01 T00661025  RH  052%=      5-min Rain = 0
KAHS 191741Z 01015KT 07/M03 A3034 RMK A01 T00671026  RH  052%=      5-min Rain = 0
KAHS 191742Z 00014KT 07/M03 A3034 RMK A01 T00661027  RH  051%=      5-min Rain = 0
KAHS 191743Z 36014G19KT 07/M03 A3034 RMK A01 T00661027  RH  051%=      5-min Rain = 0
KAHS 191744Z 36013KT 07/M03 A3034 RMK A01 T00651027  RH  052%=      5-min Rain = 0
KAHS 191745Z 01011KT 07/M03 A3034 RMK A01 T00661026  RH  052%=      5-min Rain = 0
KAHS 191746Z 36011KT 07/M03 A3034 RMK A01 T00661026  RH  052%=      5-min Rain = 0
KAHS 191747Z 35010KT 07/M03 A3034 RMK A01 T00671026  RH  052%=      5-min Rain = 0
KAHS 191748Z 34010KT 07/M02 A3034 RMK A01 T00691022  RH  052%=      5-min Rain = 0
KAHS 191749Z 35010KT 07/M02 A3033 RMK A01 T00711021  RH  052%=      5-min Rain = 0
KAHS 191750Z 01012KT 07/M02 A3033 RMK A01 T00721021  RH  051%=      5-min Rain = 0
KAHS 191751Z 00013KT 07/M02 A3033 RMK A01 T00741020  RH  051%=      5-min Rain = 0
KAHS 191752Z 36013KT 07/M03 A3033 RMK A01 T00731025  RH  050%=      5-min Rain = 0
KAHS 191753Z 01012KT 07/M03 A3033 RMK A01 T00711026  RH  050%=      5-min Rain = 0
KAHS 191754Z 36012KT 07/M03 A3033 RMK A01 T00701026  RH  050%=      5-min Rain = 0
KAHS 191755Z 00009KT 07/M03 A3033 RMK A01 T00691028  RH  050%=      5-min Rain = 0
KAHS 191756Z 01009KT 07/M02 A3033 RMK A01 T00701024  RH  051%=      5-min Rain = 0
KAHS 191757Z 00011KT 07/M02 A3033 RMK A01 T00721022  RH  051%=      5-min Rain = 0
KAHS 191758Z 35011KT 07/M03 A3033 RMK A01 T00711025  RH  050%=      5-min Rain = 0
KAHS 191759Z 00011KT 07/M02 A3033 RMK A01 T00721023  RH  051%=      5-min Rain = 0
KAHS 191800Z 00012KT 07/M02 A3033 RMK A01 T00721024  RH  050%=      5-min Rain = 0
KAHS 191801Z 36014KT 07/M03 A3033 RMK A01 T00721025  RH  050%=      5-min Rain = 0
KAHS 191802Z 36010KT 07/M03 A3033 RMK A01 T00711026  RH  050%=      5-min Rain = 0
KAHS 191803Z 35011KT 07/M03 A3033 RMK A01 T00711026  RH  050%=      5-min Rain = 0
KAHS 191804Z 35010G15KT 07/M02 A3033 RMK A01 T00721024  RH  050%=      5-min Rain = 0
KAHS 191805Z 35010KT 07/M02 A3033 RMK A01 T00731023  RH  051%=      5-min Rain = 0
KAHS 191806Z 35011KT 08/M02 A3033 RMK A01 T00751021  RH  050%=      5-min Rain = 0
KAHS 191807Z 00010KT 08/M02 A3032 RMK A01 T00751024  RH  050%=      5-min Rain = 0
KAHS 191808Z 35008KT 08/M02 A3032 RMK A01 T00751023  RH  050%=      5-min Rain = 0
KAHS 191809Z 35011KT 08/M02 A3032 RMK A01 T00761023  RH  050%=      5-min Rain = 0
KAHS 191810Z 34014KT 08/M02 A3032 RMK A01 T00761022  RH  050%=      5-min Rain = 0
KAHS 191811Z 33014KT 08/M02 A3032 RMK A01 T00771021  RH  050%=      5-min Rain = 0
KAHS 191812Z 34012KT 08/M03 A3032 RMK A01 T00751025  RH  049%=      5-min Rain = 0
KAHS 191813Z 34010KT 08/M02 A3032 RMK A01 T00751024  RH  050%=      5-min Rain = 0
KAHS 191814Z 34013KT 08/M02 A3032 RMK A01 T00761022  RH  050%=      5-min Rain = 0
KAHS 191815Z 35012KT 08/M02 A3032 RMK A01 T00771021  RH  050%=      5-min Rain = 0
KAHS 191816Z 36011KT 08/M02 A3032 RMK A01 T00781023  RH  049%=      5-min Rain = 0
KAHS 191817Z 35015KT 08/M02 A3032 RMK A01 T00791022  RH  049%=      5-min Rain = 0
KAHS 191818Z 36015KT 08/M03 A3032 RMK A01 T00781026  RH  048%=      5-min Rain = 0
KAHS 191819Z 35017KT 08/M03 A3032 RMK A01 T00771026  RH  048%=      5-min Rain = 0
KAHS 191820Z 35014KT 08/M03 A3032 RMK A01 T00751028  RH  048%=      5-min Rain = 0
KAHS 191821Z 35013KT 08/M03 A3032 RMK A01 T00751026  RH  049%=      5-min Rain = 0
KAHS 191822Z 35012KT 08/M03 A3032 RMK A01 T00761025  RH  049%=      5-min Rain = 0
KAHS 191823Z 35015KT 08/M03 A3032 RMK A01 T00761026  RH  049%=      5-min Rain = 0
KAHS 191824Z 35015KT 08/M03 A3031 RMK A01 T00761026  RH  048%=      5-min Rain = 0
KAHS 191825Z 35016KT 08/M03 A3031 RMK A01 T00771028  RH  048%=      5-min Rain = 0
KAHS 191826Z 01013KT 08/M03 A3032 RMK A01 T00771026  RH  048%=      5-min Rain = 0
KAHS 191827Z 01015KT 08/M03 A3032 RMK A01 T00771027  RH  048%=      5-min Rain = 0
KAHS 191828Z 01014KT 08/M03 A3032 RMK A01 T00771026  RH  048%=      5-min Rain = 0
KAHS 191829Z 01012KT 08/M02 A3031 RMK A01 T00791022  RH  049%=      5-min Rain = 0
KAHS 191830Z 36009KT 08/M02 A3031 RMK A01 T00791024  RH  048%=      5-min Rain = 0
KAHS 191831Z 35014G19KT 08/M02 A3031 RMK A01 T00821020  RH  049%=      5-min Rain = 0
KAHS 191832Z 34013G19KT 08/M02 A3031 RMK A01 T00821023  RH  047%=      5-min Rain = 0
KAHS 191833Z 34016KT 08/M02 A3031 RMK A01 T00841021  RH  047%=      5-min Rain = 0
KAHS 191834Z 35015KT 08/M03 A3031 RMK A01 T00821026  RH  046%=      5-min Rain = 0
KAHS 191835Z 35014KT 08/M02 A3031 RMK A01 T00821024  RH  047%=      5-min Rain = 0
KAHS 191836Z 34013KT 08/M03 A3031 RMK A01 T00811027  RH  047%=      5-min Rain = 0
KAHS 191837Z 36014KT 08/M02 A3031 RMK A01 T00811024  RH  047%=      5-min Rain = 0
KAHS 191838Z 35013KT 08/M02 A3031 RMK A01 T00821024  RH  047%=      5-min Rain = 0
KAHS 191839Z 35014KT 08/M02 A3031 RMK A01 T00831024  RH  047%=      5-min Rain = 0
KAHS 191840Z 35014KT 08/M02 A3031 RMK A01 T00841024  RH  047%=      5-min Rain = 0
KAHS 191841Z 36014KT 09/M03 A3031 RMK A01 T00851025  RH  046%=      5-min Rain = 0
KAHS 191842Z 35015KT 08/M03 A3031 RMK A01 T00831027  RH  046%=      5-min Rain = 0
KAHS 191843Z 34011KT 08/M03 A3031 RMK A01 T00811027  RH  046%=      5-min Rain = 0
KAHS 191844Z 34010KT 08/M03 A3031 RMK A01 T00801028  RH  046%=      5-min Rain = 0
KAHS 191845Z 34010KT 08/M02 A3031 RMK A01 T00831023  RH  048%=      5-min Rain = 0
KAHS 191846Z 34013KT 09/M02 A3031 RMK A01 T00861020  RH  047%=      5-min Rain = 0
KAHS 191847Z 34011G16KT 09/M02 A3031 RMK A01 T00871021  RH  047%=      5-min Rain = 0
KAHS 191848Z 35013KT 09/M02 A303 RMK A01 T00911019  RH  046%=      5-min Rain = 0
KAHS 191849Z 34016KT 09/M02 A303 RMK A01 T00901024  RH  045%=      5-min Rain = 0
KAHS 191850Z 34013KT 09/M03 A303 RMK A01 T00891025  RH  045%=      5-min Rain = 0
KAHS 191851Z 34014KT 09/M02 A303 RMK A01 T00891024  RH  045%=      5-min Rain = 0
KAHS 191852Z 34015G20KT 09/M02 A303 RMK A01 T00881024  RH  045%=      5-min Rain = 0
KAHS 191853Z 34015KT 09/M03 A303 RMK A01 T00871025  RH  045%=      5-min Rain = 0
KAHS 191854Z 34012KT 09/M03 A303 RMK A01 T00871025  RH  045%=      5-min Rain = 0
KAHS 191855Z 33012G17KT 09/M02 A303 RMK A01 T00881021  RH  046%=      5-min Rain = 0
KAHS 191856Z 33014KT 09/M02 A303 RMK A01 T00891022  RH  046%=      5-min Rain = 0
KAHS 191857Z 33013KT 09/M02 A303 RMK A01 T00901021  RH  046%=      5-min Rain = 0
KAHS 191858Z 34016G21KT 09/M02 A303 RMK A01 T00921019  RH  046%=      5-min Rain = 0
KAHS 191859Z 35013KT 09/M02 A303 RMK A01 T00921022  RH  045%=      5-min Rain = 0
KAHS 191900Z 36015KT 09/M02 A303 RMK A01 T00911023  RH  045%=      5-min Rain = 0
KAHS 191901Z 35016KT 09/M02 A303 RMK A01 T00911023  RH  045%=      5-min Rain = 0
KAHS 191902Z 35014KT 09/M03 A303 RMK A01 T00901026  RH  044%=      5-min Rain = 0
KAHS 191903Z 36014G20KT 09/M02 A303 RMK A01 T00911023  RH  045%=      5-min Rain = 0
KAHS 191904Z 35015KT 09/M03 A303 RMK A01 T00901025  RH  044%=      5-min Rain = 0
KAHS 191905Z 36016KT 09/M02 A303 RMK A01 T00921022  RH  045%=      5-min Rain = 0
KAHS 191906Z 00016KT 09/M02 A303 RMK A01 T00921024  RH  044%=      5-min Rain = 0
KAHS 191907Z 35014KT 09/M02 A303 RMK A01 T00921024  RH  044%=      5-min Rain = 0
KAHS 191908Z 34014KT 09/M02 A303 RMK A01 T00921022  RH  045%=      5-min Rain = 0
KAHS 191909Z 35013KT 09/M02 A3029 RMK A01 T00921022  RH  045%=      5-min Rain = 0
KAHS 191910Z 36015KT 09/M02 A3029 RMK A01 T00921023  RH  044%=      5-min Rain = 0
KAHS 191911Z 35013KT 09/M02 A3029 RMK A01 T00931023  RH  044%=      5-min Rain = 0
KAHS 191912Z 35011KT 09/M02 A3029 RMK A01 T00921024  RH  044%=      5-min Rain = 0
KAHS 191913Z 34012KT 09/M02 A3029 RMK A01 T00941018  RH  045%=      5-min Rain = 0
KAHS 191914Z 34012KT 10/M02 A3029 RMK A01 T00951020  RH  044%=      5-min Rain = 0
KAHS 191915Z 00013G18KT 10/M02 A3029 RMK A01 T00951020  RH  044%=      5-min Rain = 0
KAHS 191916Z 36016KT 10/M02 A3029 RMK A01 T00961020  RH  044%=      5-min Rain = 0
KAHS 191917Z 36016KT 10/M02 A3029 RMK A01 T00951022  RH  044%=      5-min Rain = 0
KAHS 191918Z 36014KT 09/M02 A3029 RMK A01 T00941024  RH  043%=      5-min Rain = 0
KAHS 191919Z 36012G19KT 09/M02 A3029 RMK A01 T00931023  RH  044%=      5-min Rain = 0
KAHS 191920Z 35015KT 10/M02 A3029 RMK A01 T00951021  RH  044%=      5-min Rain = 0
KAHS 191921Z 35014KT 10/M02 A3029 RMK A01 T00961022  RH  044%=      5-min Rain = 0
KAHS 191922Z 36013G20KT 10/M02 A3029 RMK A01 T00971019  RH  044%=      5-min Rain = 0
KAHS 191923Z 36016KT 10/M02 A3028 RMK A01 T00961022  RH  043%=      5-min Rain = 0
KAHS 191924Z 01017KT 10/M02 A3028 RMK A01 T00951022  RH  044%=      5-min Rain = 0
KAHS 191925Z 01015KT 09/M03 A3028 RMK A01 T00941025  RH  043%=      5-min Rain = 0
KAHS 191926Z 00013KT 09/M02 A3028 RMK A01 T00941023  RH  044%=      5-min Rain = 0
KAHS 191927Z 36014KT 10/M02 A3028 RMK A01 T00951024  RH  043%=      5-min Rain = 0
KAHS 191928Z 35015KT 09/M02 A3028 RMK A01 T00941024  RH  043%=      5-min Rain = 0
KAHS 191929Z 36015KT 09/M02 A3028 RMK A01 T00941023  RH  044%=      5-min Rain = 0
KAHS 191930Z 35014KT 10/M02 A3028 RMK A01 T00951024  RH  043%=      5-min Rain = 0
KAHS 191931Z 34013KT 10/M02 A3028 RMK A01 T00951023  RH  043%=      5-min Rain = 0
KAHS 191932Z 36011KT 10/M02 A3028 RMK A01 T00981017  RH  045%=      5-min Rain = 0
KAHS 191933Z 36015KT 10/M02 A3028 RMK A01 T01011017  RH  044%=      5-min Rain = 0
KAHS 191934Z 01015KT 10/M02 A3028 RMK A01 T01001020  RH  043%=      5-min Rain = 0
KAHS 191935Z 35011KT 10/M02 A3028 RMK A01 T01011018  RH  043%=      5-min Rain = 0
KAHS 191936Z 36013KT 10/M02 A3028 RMK A01 T01031017  RH  043%=      5-min Rain = 0
KAHS 191937Z 00015G21KT 10/M02 A3028 RMK A01 T01031017  RH  043%=      5-min Rain = 0
KAHS 191938Z 36015KT 10/M02 A3028 RMK A01 T01011022  RH  042%=      5-min Rain = 0
KAHS 191939Z 36013G18KT 10/M02 A3028 RMK A01 T01011023  RH  042%=      5-min Rain = 0
KAHS 191940Z 34015KT 10/M02 A3028 RMK A01 T01031019  RH  042%=      5-min Rain = 0
KAHS 191941Z 35016KT 10/M02 A3028 RMK A01 T01041020  RH  042%=      5-min Rain = 0
KAHS 191942Z 35015KT 10/M02 A3028 RMK A01 T01031024  RH  041%=      5-min Rain = 0
KAHS 191943Z 35016KT 10/M02 A3028 RMK A01 T01021023  RH  041%=      5-min Rain = 0
KAHS 191944Z 35012G17KT 10/M02 A3028 RMK A01 T01021023  RH  041%=      5-min Rain = 0
KAHS 191945Z 00014KT 10/M02 A3028 RMK A01 T01031020  RH  042%=      5-min Rain = 0
KAHS 191946Z 36014KT 10/M02 A3028 RMK A01 T01041022  RH  041%=      5-min Rain = 0
KAHS 191947Z 35014KT 10/M02 A3028 RMK A01 T01041021  RH  042%=      5-min Rain = 0
KAHS 191948Z 35013KT 10/M02 A3028 RMK A01 T01031022  RH  042%=      5-min Rain = 0
KAHS 191949Z 36012KT 10/M02 A3028 RMK A01 T01041019  RH  042%=      5-min Rain = 0
KAHS 191950Z 36014KT 11/M02 A3028 RMK A01 T01051020  RH  042%=      5-min Rain = 0
KAHS 191951Z 00010KT 11/M02 A3028 RMK A01 T01061018  RH  042%=      5-min Rain = 0
KAHS 191952Z 00014KT 11/M02 A3028 RMK A01 T01071019  RH  041%=      5-min Rain = 0
KAHS 191953Z 35012KT 11/M02 A3028 RMK A01 T01071019  RH  041%=      5-min Rain = 0
KAHS 191954Z 33012KT 11/M02 A3028 RMK A01 T01081021  RH  041%=      5-min Rain = 0
KAHS 191955Z 00011KT 11/M02 A3028 RMK A01 T01091018  RH  041%=      5-min Rain = 0
KAHS 191956Z 00012KT 11/M02 A3028 RMK A01 T01111018  RH  041%=      5-min Rain = 0
KAHS 191957Z 35013KT 11/M02 A3028 RMK A01 T01111019  RH  040%=      5-min Rain = 0
KAHS 191958Z 36012KT 11/M02 A3028 RMK A01 T01091022  RH  040%=      5-min Rain = 0
KAHS 191959Z 35014KT 11/M02 A3028 RMK A01 T01081022  RH  040%=      5-min Rain = 0
KAHS 192000Z 34011KT 11/M02 A3028 RMK A01 T01081021  RH  041%=      5-min Rain = 0
KAHS 192001Z 36013KT 11/M02 A3027 RMK A01 T01091021  RH  040%=      5-min Rain = 0
KAHS 192002Z 35011KT 11/M02 A3027 RMK A01 T01091021  RH  040%=      5-min Rain = 0
KAHS 192003Z 34013KT 11/M02 A3027 RMK A01 T01111019  RH  040%=      5-min Rain = 0
KAHS 192004Z 34015G20KT 11/M02 A3027 RMK A01 T01131019  RH  040%=      5-min Rain = 0
KAHS 192005Z 34014KT 11/M02 A3027 RMK A01 T01131019  RH  040%=      5-min Rain = 0
KAHS 192006Z 35013KT 11/M02 A3027 RMK A01 T01121024  RH  039%=      5-min Rain = 0
KAHS 192007Z 35013G18KT 11/M02 A3027 RMK A01 T01121023  RH  039%=      5-min Rain = 0
KAHS 192008Z 35012G17KT 11/M02 A3027 RMK A01 T01131022  RH  039%=      5-min Rain = 0
KAHS 192009Z 35015G21KT 11/M02 A3027 RMK A01 T01141019  RH  039%=      5-min Rain = 0
KAHS 192010Z 35017KT 11/M02 A3027 RMK A01 T01131024  RH  038%=      5-min Rain = 0
KAHS 192011Z 34016KT 11/M03 A3027 RMK A01 T01111025  RH  039%=      5-min Rain = 0
KAHS 192012Z 34014G20KT 11/M02 A3027 RMK A01 T01121024  RH  039%=      5-min Rain = 0
KAHS 192013Z 35017KT 11/M03 A3027 RMK A01 T01131025  RH  038%=      5-min Rain = 0
KAHS 192014Z 35015KT 11/M02 A3027 RMK A01 T01121023  RH  039%=      5-min Rain = 0
KAHS 192015Z 35014KT 11/M03 A3027 RMK A01 T01121025  RH  038%=      5-min Rain = 0
KAHS 192016Z 35012KT 11/M03 A3027 RMK A01 T01121025  RH  038%=      5-min Rain = 0
KAHS 192017Z 35010KT 11/M02 A3027 RMK A01 T01121022  RH  039%=      5-min Rain = 0
KAHS 192018Z 35009KT 11/M02 A3026 RMK A01 T01131021  RH  039%=      5-min Rain = 0
KAHS 192019Z 35010KT 12/M02 A3027 RMK A01 T01151018  RH  039%=      5-min Rain = 0
KAHS 192020Z 34014KT 12/M02 A3027 RMK A01 T01151023  RH  038%=      5-min Rain = 0
KAHS 192021Z 32014KT 11/M02 A3026 RMK A01 T01141023  RH  038%=      5-min Rain = 0
KAHS 192022Z 34011KT 11/M02 A3026 RMK A01 T01131023  RH  039%=      5-min Rain = 0
KAHS 192023Z 34011KT 11/M02 A3026 RMK A01 T01141022  RH  039%=      5-min Rain = 0
KAHS 192024Z 33012KT 11/M02 A3026 RMK A01 T01141020  RH  039%=      5-min Rain = 0
KAHS 192025Z 33014KT 12/M02 A3026 RMK A01 T01151021  RH  039%=      5-min Rain = 0
KAHS 192026Z 33015KT 12/M02 A3026 RMK A01 T01151020  RH  039%=      5-min Rain = 0
KAHS 192027Z 33015KT 11/M02 A3026 RMK A01 T01141024  RH  038%=      5-min Rain = 0
KAHS 192028Z 33016KT 11/M02 A3026 RMK A01 T01141023  RH  039%=      5-min Rain = 0
KAHS 192029Z 33015KT 12/M02 A3026 RMK A01 T01151021  RH  039%=      5-min Rain = 0
KAHS 192030Z 34015KT 11/M02 A3026 RMK A01 T01141024  RH  038%=      5-min Rain = 0
KAHS 192031Z 35013KT 12/M02 A3026 RMK A01 T01151021  RH  039%=      5-min Rain = 0
KAHS 192032Z 34014G19KT 12/M02 A3026 RMK A01 T01161021  RH  038%=      5-min Rain = 0
KAHS 192033Z 35013G18KT 11/M03 A3026 RMK A01 T01141026  RH  038%=      5-min Rain = 0
KAHS 192034Z 34011KT 11/M03 A3026 RMK A01 T01131025  RH  038%=      5-min Rain = 0
KAHS 192035Z 34012KT 11/M02 A3026 RMK A01 T01141022  RH  039%=      5-min Rain = 0
KAHS 192036Z 34017KT 12/M02 A3026 RMK A01 T01151021  RH  039%=      5-min Rain = 0
KAHS 192037Z 34016KT 11/M03 A3026 RMK A01 T01141025  RH  038%=      5-min Rain = 0
KAHS 192038Z 34014KT 12/M02 A3026 RMK A01 T01151024  RH  038%=      5-min Rain = 0
KAHS 192039Z 34015KT 12/M03 A3026 RMK A01 T01151025  RH  037%=      5-min Rain = 0
KAHS 192040Z 33014KT 12/M03 A3026 RMK A01 T01151028  RH  037%=      5-min Rain = 0
KAHS 192041Z 33015G20KT 12/M02 A3026 RMK A01 T01151024  RH  038%=      5-min Rain = 0
KAHS 192042Z 34016KT 12/M03 A3026 RMK A01 T01151026  RH  037%=      5-min Rain = 0
KAHS 192043Z 36017G22KT 12/M03 A3026 RMK A01 T01161025  RH  037%=      5-min Rain = 0
KAHS 192044Z 35017KT 12/M03 A3026 RMK A01 T01151028  RH  037%=      5-min Rain = 0
KAHS 192045Z 34015KT 12/M03 A3026 RMK A01 T01151026  RH  037%=      5-min Rain = 0
KAHS 192046Z 35014KT 12/M03 A3026 RMK A01 T01161026  RH  037%=      5-min Rain = 0
KAHS 192047Z 34015KT 12/M03 A3026 RMK A01 T01161026  RH  037%=      5-min Rain = 0
KAHS 192048Z 34016KT 12/M03 A3026 RMK A01 T01171025  RH  037%=      5-min Rain = 0
KAHS 192049Z 34015KT 12/M03 A3026 RMK A01 T01161028  RH  037%=      5-min Rain = 0
KAHS 192050Z 33014KT 12/M02 A3026 RMK A01 T01171024  RH  037%=      5-min Rain = 0
KAHS 192051Z 33016KT 12/M03 A3026 RMK A01 T01171027  RH  036%=      5-min Rain = 0
KAHS 192052Z 34014KT 12/M03 A3026 RMK A01 T01161028  RH  036%=      5-min Rain = 0
KAHS 192053Z 34012G17KT 12/M03 A3026 RMK A01 T01171025  RH  037%=      5-min Rain = 0
KAHS 192054Z 33016G22KT 12/M03 A3025 RMK A01 T01181025  RH  037%=      5-min Rain = 0
KAHS 192055Z 33017G23KT 12/M03 A3025 RMK A01 T01191026  RH  036%=      5-min Rain = 0
KAHS 192056Z 33020KT 12/M03 A3025 RMK A01 T01161030  RH  036%=      5-min Rain = 0
KAHS 192057Z 32020KT 12/M03 A3025 RMK A01 T01151030  RH  036%=      5-min Rain = 0
KAHS 192058Z 33017KT 12/M03 A3025 RMK A01 T01151029  RH  036%=      5-min Rain = 0
KAHS 192059Z 33017KT 12/M03 A3025 RMK A01 T01161029  RH  036%=      5-min Rain = 0
KAHS 192100Z 33012KT 12/M03 A3025 RMK A01 T01161028  RH  036%=      5-min Rain = 0
KAHS 192101Z 33013KT 12/M03 A3025 RMK A01 T01171027  RH  036%=      5-min Rain = 0
KAHS 192102Z 34012KT 12/M03 A3025 RMK A01 T01181027  RH  036%=      5-min Rain = 0
KAHS 192103Z 34016G21KT 12/M03 A3025 RMK A01 T01201026  RH  036%=      5-min Rain = 0
KAHS 192104Z 33014G20KT 12/M03 A3025 RMK A01 T01201028  RH  036%=      5-min Rain = 0
KAHS 192105Z 33017KT 12/M03 A3025 RMK A01 T01201027  RH  036%=      5-min Rain = 0
KAHS 192106Z 34018KT 12/M03 A3025 RMK A01 T01211028  RH  035%=      5-min Rain = 0
KAHS 192107Z 35017KT 12/M03 A3026 RMK A01 T01211031  RH  034%=      5-min Rain = 0
KAHS 192108Z 35018KT 12/M03 A3026 RMK A01 T01191033  RH  034%=      5-min Rain = 0
KAHS 192109Z 35014KT 12/M03 A3026 RMK A01 T01181033  RH  035%=      5-min Rain = 0
KAHS 192110Z 35018KT 12/M03 A3026 RMK A01 T01181033  RH  035%=      5-min Rain = 0
KAHS 192111Z 35017KT 12/M04 A3026 RMK A01 T01181035  RH  034%=      5-min Rain = 0
KAHS 192112Z 35013KT 12/M03 A3026 RMK A01 T01191030  RH  035%=      5-min Rain = 0
KAHS 192113Z 34017KT 12/M03 A3026 RMK A01 T01211030  RH  035%=      5-min Rain = 0
KAHS 192114Z 34016KT 12/M03 A3026 RMK A01 T01201032  RH  034%=      5-min Rain = 0
KAHS 192115Z 34020KT 12/M03 A3026 RMK A01 T01191033  RH  034%=      5-min Rain = 0
KAHS 192116Z 34014KT 12/M04 A3026 RMK A01 T01181035  RH  034%=      5-min Rain = 0
KAHS 192117Z 33016KT 12/M03 A3025 RMK A01 T01201030  RH  035%=      5-min Rain = 0
KAHS 192118Z 33016KT 12/M03 A3025 RMK A01 T01201031  RH  035%=      5-min Rain = 0
KAHS 192119Z 33017G22KT 12/M03 A3025 RMK A01 T01201033  RH  034%=      5-min Rain = 0
KAHS 192120Z 33017KT 12/M03 A3025 RMK A01 T01191033  RH  034%=      5-min Rain = 0
KAHS 192121Z 32016G21KT 12/M03 A3025 RMK A01 T01191033  RH  034%=      5-min Rain = 0
KAHS 192122Z 33014KT 12/M03 A3026 RMK A01 T01201030  RH  035%=      5-min Rain = 0
KAHS 192123Z 33014KT 12/M03 A3026 RMK A01 T01211030  RH  035%=      5-min Rain = 0
KAHS 192124Z 34012KT 12/M03 A3026 RMK A01 T01221029  RH  035%=      5-min Rain = 0
KAHS 192125Z 34014G21KT 12/M03 A3026 RMK A01 T01221032  RH  034%=      5-min Rain = 0
KAHS 192126Z 34014KT 12/M04 A3026 RMK A01 T01211035  RH  034%=      5-min Rain = 0
KAHS 192127Z 35012KT 12/M03 A3026 RMK A01 T01201034  RH  034%=      5-min Rain = 0
KAHS 192128Z 36015KT 12/M03 A3026 RMK A01 T01221032  RH  034%=      5-min Rain = 0
KAHS 192129Z 00015KT 12/M03 A3026 RMK A01 T01231031  RH  034%=      5-min Rain = 0
KAHS 192130Z 36013KT 12/M03 A3026 RMK A01 T01231032  RH  034%=      5-min Rain = 0
KAHS 192131Z 36016KT 12/M03 A3026 RMK A01 T01221033  RH  034%=      5-min Rain = 0
KAHS 192132Z 35012KT 12/M03 A3026 RMK A01 T01221031  RH  034%=      5-min Rain = 0
KAHS 192133Z 34013KT 12/M03 A3026 RMK A01 T01221034  RH  034%=      5-min Rain = 0
KAHS 192134Z 35016KT 12/M03 A3026 RMK A01 T01221033  RH  034%=      5-min Rain = 0
KAHS 192135Z 36017KT 12/M03 A3026 RMK A01 T01221034  RH  033%=      5-min Rain = 0
KAHS 192136Z 34017KT 12/M04 A3026 RMK A01 T01211037  RH  033%=      5-min Rain = 0
KAHS 192137Z 35014KT 12/M03 A3026 RMK A01 T01211034  RH  034%=      5-min Rain = 0
KAHS 192138Z 36011G16KT 12/M03 A3026 RMK A01 T01221032  RH  034%=      5-min Rain = 0
KAHS 192139Z 33013KT 12/M03 A3026 RMK A01 T01231030  RH  034%=      5-min Rain = 0
KAHS 192140Z 33014G19KT 12/M03 A3026 RMK A01 T01241029  RH  034%=      5-min Rain = 0
KAHS 192141Z 33015G20KT 12/M03 A3026 RMK A01 T01231032  RH  034%=      5-min Rain = 0
KAHS 192142Z 33012G18KT 12/M03 A3026 RMK A01 T01231030  RH  034%=      5-min Rain = 0
KAHS 192143Z 35011KT 13/M03 A3026 RMK A01 T01251028  RH  035%=      5-min Rain = 0
KAHS 192144Z 36011KT 13/M03 A3026 RMK A01 T01261028  RH  034%=      5-min Rain = 0
KAHS 192145Z 35016KT 13/M03 A3026 RMK A01 T01261033  RH  033%=      5-min Rain = 0
KAHS 192146Z 36013G18KT 12/M03 A3026 RMK A01 T01241033  RH  033%=      5-min Rain = 0
KAHS 192147Z 35013G18KT 13/M03 A3026 RMK A01 T01251031  RH  034%=      5-min Rain = 0
KAHS 192148Z 36013KT 12/M03 A3026 RMK A01 T01241034  RH  033%=      5-min Rain = 0
KAHS 192149Z 36016KT 12/M04 A3026 RMK A01 T01231035  RH  033%=      5-min Rain = 0
KAHS 192150Z 35017KT 12/M03 A3026 RMK A01 T01231034  RH  033%=      5-min Rain = 0
KAHS 192151Z 35014KT 12/M04 A3026 RMK A01 T01211037  RH  033%=      5-min Rain = 0
KAHS 192152Z 34009KT 12/M03 A3026 RMK A01 T01211034  RH  034%=      5-min Rain = 0
KAHS 192153Z 35013G22KT 12/M03 A3026 RMK A01 T01231030  RH  034%=      5-min Rain = 0
KAHS 192154Z 35016G21KT 12/M03 A3026 RMK A01 T01231034  RH  033%=      5-min Rain = 0
KAHS 192155Z 34013KT 12/M03 A3026 RMK A01 T01231032  RH  034%=      5-min Rain = 0
KAHS 192156Z 34015KT 12/M03 A3026 RMK A01 T01241032  RH  034%=      5-min Rain = 0
KAHS 192157Z 34012KT 12/M03 A3026 RMK A01 T01231033  RH  034%=      5-min Rain = 0
KAHS 192158Z 35014KT 12/M03 A3026 RMK A01 T01231034  RH  033%=      5-min Rain = 0
KAHS 192159Z 35013KT 12/M04 A3026 RMK A01 T01221037  RH  033%=      5-min Rain = 0
KAHS 192200Z 35012KT 12/M04 A3026 RMK A01 T01211036  RH  033%=      5-min Rain = 0
KAHS 192201Z 35013KT 12/M03 A3026 RMK A01 T01221034  RH  034%=      5-min Rain = 0
KAHS 192202Z 34014KT 12/M03 A3025 RMK A01 T01231033  RH  034%=      5-min Rain = 0
KAHS 192203Z 34013KT 12/M03 A3026 RMK A01 T01231032  RH  034%=      5-min Rain = 0
KAHS 192204Z 34016KT 12/M03 A3025 RMK A01 T01231032  RH  034%=      5-min Rain = 0
KAHS 192205Z 35014KT 12/M04 A3026 RMK A01 T01221035  RH  033%=      5-min Rain = 0
KAHS 192206Z 35015KT 12/M03 A3026 RMK A01 T01231033  RH  034%=      5-min Rain = 0
KAHS 192207Z 35010KT 12/M03 A3026 RMK A01 T01231033  RH  034%=      5-min Rain = 0
KAHS 192208Z 35012KT 12/M03 A3026 RMK A01 T01241032  RH  034%=      5-min Rain = 0
KAHS 192209Z 35011KT 12/M03 A3026 RMK A01 T01231032  RH  034%=      5-min Rain = 0
KAHS 192210Z 33013KT 12/M03 A3025 RMK A01 T01231033  RH  033%=      5-min Rain = 0
KAHS 192211Z 33013KT 12/M03 A3025 RMK A01 T01231033  RH  034%=      5-min Rain = 0
KAHS 192212Z 35013G18KT 12/M03 A3026 RMK A01 T01231033  RH  034%=      5-min Rain = 0
KAHS 192213Z 35013G20KT 12/M03 A3026 RMK A01 T01231032  RH  034%=      5-min Rain = 0
KAHS 192214Z 36012KT 12/M03 A3026 RMK A01 T01241033  RH  034%=      5-min Rain = 0
KAHS 192215Z 35013KT 12/M04 A3026 RMK A01 T01231036  RH  033%=      5-min Rain = 0
KAHS 192216Z 35013KT 12/M04 A3026 RMK A01 T01221038  RH  033%=      5-min Rain = 0
KAHS 192217Z 35010KT 12/M04 A3026 RMK A01 T01221036  RH  033%=      5-min Rain = 0
KAHS 192218Z 36009KT 12/M03 A3026 RMK A01 T01231034  RH  033%=      5-min Rain = 0
KAHS 192219Z 00016KT 12/M03 A3026 RMK A01 T01231034  RH  033%=      5-min Rain = 0
KAHS 192220Z 35011KT 12/M03 A3026 RMK A01 T01241032  RH  034%=      5-min Rain = 0
KAHS 192221Z 35011KT 12/M03 A3026 RMK A01 T01241031  RH  034%=      5-min Rain = 0
KAHS 192222Z 34013KT 12/M03 A3026 RMK A01 T01241034  RH  033%=      5-min Rain = 0
KAHS 192223Z 34009KT 12/M03 A3026 RMK A01 T01231033  RH  033%=      5-min Rain = 0
KAHS 192224Z 34008KT 13/M03 A3026 RMK A01 T01251028  RH  034%=      5-min Rain = 0
KAHS 192225Z 35010KT 13/M03 A3026 RMK A01 T01251031  RH  033%=      5-min Rain = 0
KAHS 192226Z 35010KT 13/M03 A3026 RMK A01 T01261030  RH  034%=      5-min Rain = 0
KAHS 192227Z 35012KT 13/M03 A3026 RMK A01 T01261031  RH  033%=      5-min Rain = 0
KAHS 192228Z 35011KT 13/M03 A3026 RMK A01 T01251034  RH  033%=      5-min Rain = 0
KAHS 192229Z 36010KT 13/M03 A3026 RMK A01 T01251033  RH  033%=      5-min Rain = 0
KAHS 192230Z 35010KT 13/M03 A3026 RMK A01 T01251032  RH  033%=      5-min Rain = 0
KAHS 192231Z 35012KT 13/M03 A3026 RMK A01 T01251033  RH  033%=      5-min Rain = 0
KAHS 192232Z 35013KT 12/M03 A3026 RMK A01 T01241034  RH  033%=      5-min Rain = 0
KAHS 192233Z 35012KT 12/M04 A3026 RMK A01 T01231037  RH  032%=      5-min Rain = 0
KAHS 192234Z 35010KT 12/M04 A3026 RMK A01 T01221037  RH  033%=      5-min Rain = 0
KAHS 192235Z 34010KT 12/M03 A3026 RMK A01 T01231034  RH  033%=      5-min Rain = 0
KAHS 192236Z 00012G17KT 12/M03 A3026 RMK A01 T01231034  RH  033%=      5-min Rain = 0
KAHS 192237Z 36013KT 12/M04 A3026 RMK A01 T01221037  RH  033%=      5-min Rain = 0
KAHS 192238Z 36013KT 12/M04 A3026 RMK A01 T01221038  RH  032%=      5-min Rain = 0
KAHS 192239Z 00009KT 12/M04 A3026 RMK A01 T01211040  RH  032%=      5-min Rain = 0
KAHS 192240Z 36012KT 12/M04 A3026 RMK A01 T01211036  RH  033%=      5-min Rain = 0
KAHS 192241Z 36010KT 12/M04 A3026 RMK A01 T01221036  RH  033%=      5-min Rain = 0
KAHS 192242Z 36009KT 12/M03 A3026 RMK A01 T01221034  RH  034%=      5-min Rain = 0
KAHS 192243Z 00011G16KT 12/M03 A3026 RMK A01 T01221034  RH  034%=      5-min Rain = 0
KAHS 192244Z 01011KT 12/M04 A3026 RMK A01 T01221035  RH  033%=      5-min Rain = 0
KAHS 192245Z 01012KT 12/M04 A3026 RMK A01 T01211038  RH  033%=      5-min Rain = 0
KAHS 192246Z 36010KT 12/M04 A3026 RMK A01 T01201036  RH  033%=      5-min Rain = 0
KAHS 192247Z 36014G19KT 12/M04 A3026 RMK A01 T01211035  RH  034%=      5-min Rain = 0
KAHS 192248Z 36014KT 12/M04 A3026 RMK A01 T01201038  RH  033%=      5-min Rain = 0
KAHS 192249Z 35012KT 12/M04 A3026 RMK A01 T01191039  RH  033%=      5-min Rain = 0
KAHS 192250Z 00012KT 12/M04 A3026 RMK A01 T01191037  RH  033%=      5-min Rain = 0
KAHS 192251Z 36013KT 12/M04 A3026 RMK A01 T01191036  RH  034%=      5-min Rain = 0
KAHS 192252Z 36011KT 12/M04 A3026 RMK A01 T01191037  RH  033%=      5-min Rain = 0
KAHS 192253Z 00010KT 12/M04 A3026 RMK A01 T01191037  RH  034%=      5-min Rain = 0
KAHS 192254Z 01013KT 12/M04 A3026 RMK A01 T01191037  RH  034%=      5-min Rain = 0
KAHS 192255Z 01010KT 12/M04 A3026 RMK A01 T01181036  RH  034%=      5-min Rain = 0
KAHS 192256Z 01011KT 12/M04 A3026 RMK A01 T01181036  RH  034%=      5-min Rain = 0
KAHS 192257Z 02013KT 12/M04 A3026 RMK A01 T01171038  RH  033%=      5-min Rain = 0
KAHS 192258Z 01011KT 12/M04 A3026 RMK A01 T01171039  RH  033%=      5-min Rain = 0
KAHS 192259Z 00014KT 12/M04 A3026 RMK A01 T01171038  RH  034%=      5-min Rain = 0
KAHS 192300Z 01009KT 12/M04 A3026 RMK A01 T01171037  RH  034%=      5-min Rain = 0
KAHS 192301Z 02010KT 12/M04 A3026 RMK A01 T01181035  RH  034%=      5-min Rain = 0
KAHS 192302Z 01012KT 12/M04 A3026 RMK A01 T01181036  RH  034%=      5-min Rain = 0
KAHS 192303Z 01012KT 12/M04 A3026 RMK A01 T01171037  RH  034%=      5-min Rain = 0
KAHS 192304Z 00013KT 12/M04 A3026 RMK A01 T01171036  RH  034%=      5-min Rain = 0
KAHS 192305Z 36011KT 12/M04 A3026 RMK A01 T01161036  RH  034%=      5-min Rain = 0
KAHS 192306Z 01010KT 12/M03 A3026 RMK A01 T01171034  RH  035%=      5-min Rain = 0
KAHS 192307Z 36011KT 12/M03 A3026 RMK A01 T01171034  RH  035%=      5-min Rain = 0
KAHS 192308Z 00009KT 12/M03 A3026 RMK A01 T01171034  RH  035%=      5-min Rain = 0
KAHS 192309Z 01010KT 12/M03 A3026 RMK A01 T01171034  RH  035%=      5-min Rain = 0
KAHS 192310Z 01010KT 12/M03 A3026 RMK A01 T01161034  RH  035%=      5-min Rain = 0
KAHS 192311Z 01013KT 12/M04 A3026 RMK A01 T01151038  RH  034%=      5-min Rain = 0
KAHS 192312Z 01012KT 11/M04 A3026 RMK A01 T01141039  RH  034%=      5-min Rain = 0
KAHS 192313Z 01012KT 11/M04 A3026 RMK A01 T01141039  RH  034%=      5-min Rain = 0
KAHS 192314Z 01010KT 11/M04 A3026 RMK A01 T01141039  RH  034%=      5-min Rain = 0
KAHS 192315Z 01010KT 11/M04 A3026 RMK A01 T01141038  RH  034%=      5-min Rain = 0
KAHS 192316Z 01009KT 11/M04 A3026 RMK A01 T01141036  RH  035%=      5-min Rain = 0
KAHS 192317Z 01011KT 11/M04 A3026 RMK A01 T01131038  RH  034%=      5-min Rain = 0
KAHS 192318Z 01010KT 11/M04 A3026 RMK A01 T01131038  RH  035%=      5-min Rain = 0
KAHS 192319Z 01011KT 11/M04 A3026 RMK A01 T01131037  RH  035%=      5-min Rain = 0
KAHS 192320Z 01010KT 11/M04 A3026 RMK A01 T01121037  RH  035%=      5-min Rain = 0
KAHS 192321Z 01011KT 11/M04 A3026 RMK A01 T01121036  RH  035%=      5-min Rain = 0
KAHS 192322Z 00009KT 11/M04 A3026 RMK A01 T01121036  RH  035%=      5-min Rain = 0
KAHS 192323Z 01007KT 11/M03 A3026 RMK A01 T01121034  RH  036%=      5-min Rain = 0
KAHS 192324Z 01010KT 11/M04 A3026 RMK A01 T01121035  RH  036%=      5-min Rain = 0
KAHS 192325Z 01011KT 11/M04 A3026 RMK A01 T01121035  RH  035%=      5-min Rain = 0
KAHS 192326Z 01008KT 11/M04 A3026 RMK A01 T01121036  RH  035%=      5-min Rain = 0
KAHS 192327Z 01007KT 11/M03 A3026 RMK A01 T01121034  RH  036%=      5-min Rain = 0
KAHS 192328Z 01007KT 11/M03 A3026 RMK A01 T01111034  RH  036%=      5-min Rain = 0
KAHS 192329Z 01011KT 11/M04 A3026 RMK A01 T01111036  RH  036%=      5-min Rain = 0
KAHS 192330Z 01008KT 11/M04 A3026 RMK A01 T01101037  RH  035%=      5-min Rain = 0
KAHS 192331Z 01008KT 11/M04 A3026 RMK A01 T01101036  RH  036%=      5-min Rain = 0
KAHS 192332Z 01008KT 11/M04 A3026 RMK A01 T01101035  RH  036%=      5-min Rain = 0
KAHS 192333Z 01008KT 11/M04 A3026 RMK A01 T01091037  RH  036%=      5-min Rain = 0
KAHS 192334Z 02007KT 11/M04 A3026 RMK A01 T01091035  RH  036%=      5-min Rain = 0
KAHS 192335Z 01008KT 11/M04 A3026 RMK A01 T01081036  RH  036%=      5-min Rain = 0
KAHS 192336Z 01008KT 11/M04 A3026 RMK A01 T01081035  RH  036%=      5-min Rain = 0
KAHS 192337Z 01007KT 11/M04 A3026 RMK A01 T01081035  RH  037%=      5-min Rain = 0
KAHS 192338Z 01008KT 11/M03 A3026 RMK A01 T01071034  RH  037%=      5-min Rain = 0
KAHS 192339Z 01010KT 11/M04 A3026 RMK A01 T01061035  RH  037%=      5-min Rain = 0
KAHS 192340Z 01010KT 11/M04 A3026 RMK A01 T01061037  RH  036%=      5-min Rain = 0
KAHS 192341Z 01010KT 11/M04 A3026 RMK A01 T01061036  RH  037%=      5-min Rain = 0
KAHS 192342Z 02009KT 11/M04 A3026 RMK A01 T01061037  RH  037%=      5-min Rain = 0
KAHS 192343Z 02009KT 11/M04 A3026 RMK A01 T01051037  RH  037%=      5-min Rain = 0
KAHS 192344Z 01007KT 11/M04 A3026 RMK A01 T01051036  RH  037%=      5-min Rain = 0
KAHS 192345Z 01008KT 10/M04 A3026 RMK A01 T01041035  RH  037%=      5-min Rain = 0
KAHS 192346Z 01009KT 10/M04 A3026 RMK A01 T01041036  RH  037%=      5-min Rain = 0
KAHS 192347Z 01009KT 10/M04 A3026 RMK A01 T01041037  RH  037%=      5-min Rain = 0
KAHS 192348Z 01008KT 10/M04 A3026 RMK A01 T01031037  RH  037%=      5-min Rain = 0
KAHS 192349Z 01008KT 10/M04 A3026 RMK A01 T01021036  RH  037%=      5-min Rain = 0
KAHS 192350Z 01007KT 10/M04 A3026 RMK A01 T01021036  RH  038%=      5-min Rain = 0
KAHS 192351Z 02007KT 10/M04 A3026 RMK A01 T01011036  RH  038%=      5-min Rain = 0
KAHS 192352Z 02008KT 10/M04 A3026 RMK A01 T01011036  RH  038%=      5-min Rain = 0
KAHS 192353Z 02008KT 10/M04 A3026 RMK A01 T01001036  RH  038%=      5-min Rain = 0
KAHS 192354Z 02008KT 10/M04 A3026 RMK A01 T01001036  RH  038%=      5-min Rain = 0
KAHS 192355Z 02008KT 10/M04 A3026 RMK A01 T00991036  RH  038%=      5-min Rain = 0
KAHS 192356Z 01006KT 10/M04 A3026 RMK A01 T00981036  RH  039%=      5-min Rain = 0
KAHS 192357Z 02006KT 10/M04 A3026 RMK A01 T00971035  RH  039%=      5-min Rain = 0
KAHS 192358Z 02007KT 10/M04 A3026 RMK A01 T00961035  RH  039%=      5-min Rain = 0
KAHS 192359Z 02007KT 10/M04 A3026 RMK A01 T00951036  RH  039%=      5-min Rain = 0
KAHS 200000Z 02007KT 09/M04 A3026 RMK A01 T00941036  RH  040%=      5-min Rain = 0
KAHS 200001Z 02008KT 09/M04 A3026 RMK A01 T00931036  RH  040%=      5-min Rain = 0
KAHS 200002Z 01007KT 09/M04 A3026 RMK A01 T00931036  RH  040%=      5-min Rain = 0
KAHS 200003Z 02007KT 09/M04 A3026 RMK A01 T00921036  RH  040%=      5-min Rain = 0
KAHS 200004Z 02007KT 09/M04 A3026 RMK A01 T00911036  RH  041%=      5-min Rain = 0
KAHS 200005Z 02007KT 09/M04 A3026 RMK A01 T00901036  RH  041%=      5-min Rain = 0
KAHS 200006Z 02007KT 09/M04 A3026 RMK A01 T00901036  RH  041%=      5-min Rain = 0
KAHS 200007Z 02007KT 09/M04 A3026 RMK A01 T00891036  RH  041%=      5-min Rain = 0
KAHS 200008Z 02007KT 09/M04 A3026 RMK A01 T00891036  RH  041%=      5-min Rain = 0
KAHS 200009Z 02007KT 09/M04 A3026 RMK A01 T00881036  RH  041%=      5-min Rain = 0
KAHS 200010Z 02006KT 09/M04 A3026 RMK A01 T00881036  RH  041%=      5-min Rain = 0
KAHS 200011Z 02006KT 09/M04 A3026 RMK A01 T00871035  RH  042%=      5-min Rain = 0
KAHS 200012Z 02006KT 09/M04 A3026 RMK A01 T00861036  RH  042%=      5-min Rain = 0
KAHS 200013Z 01006KT 09/M04 A3026 RMK A01 T00851036  RH  042%=      5-min Rain = 0
KAHS 200014Z 02006KT 08/M04 A3026 RMK A01 T00841036  RH  043%=      5-min Rain = 0
KAHS 200015Z 01006KT 08/M04 A3026 RMK A01 T00841036  RH  043%=      5-min Rain = 0
KAHS 200016Z 01005KT 08/M04 A3027 RMK A01 T00831036  RH  043%=      5-min Rain = 0
KAHS 200017Z 01006KT 08/M04 A3027 RMK A01 T00821036  RH  043%=      5-min Rain = 0
KAHS 200018Z 01005KT 08/M04 A3027 RMK A01 T00821036  RH  043%=      5-min Rain = 0
KAHS 200019Z 01005KT 08/M04 A3027 RMK A01 T00811036  RH  043%=      5-min Rain = 0
KAHS 200020Z 01005KT 08/M04 A3027 RMK A01 T00811036  RH  044%=      5-min Rain = 0
KAHS 200021Z 01005KT 08/M04 A3027 RMK A01 T00801036  RH  044%=      5-min Rain = 0
KAHS 200022Z 01005KT 08/M04 A3027 RMK A01 T00791036  RH  044%=      5-min Rain = 0
KAHS 200023Z 01005KT 08/M04 A3027 RMK A01 T00781036  RH  044%=      5-min Rain = 0
KAHS 200024Z 01005KT 08/M04 A3027 RMK A01 T00771036  RH  045%=      5-min Rain = 0
KAHS 200025Z 02006KT 08/M04 A3027 RMK A01 T00771036  RH  045%=      5-min Rain = 0
KAHS 200026Z 02006KT 08/M04 A3027 RMK A01 T00761036  RH  045%=      5-min Rain = 0
KAHS 200027Z 02006KT 08/M04 A3027 RMK A01 T00751035  RH  045%=      5-min Rain = 0
KAHS 200028Z 02006KT 07/M04 A3027 RMK A01 T00741035  RH  046%=      5-min Rain = 0
KAHS 200029Z 02006KT 07/M04 A3027 RMK A01 T00731035  RH  046%=      5-min Rain = 0
KAHS 200030Z 02006KT 07/M04 A3027 RMK A01 T00721035  RH  047%=      5-min Rain = 0
KAHS 200031Z 02006KT 07/M04 A3027 RMK A01 T00711035  RH  047%=      5-min Rain = 0
KAHS 200032Z 02006KT 07/M04 A3027 RMK A01 T00711035  RH  047%=      5-min Rain = 0
KAHS 200033Z 02006KT 07/M04 A3027 RMK A01 T00701035  RH  047%=      5-min Rain = 0
KAHS 200034Z 02006KT 07/M04 A3027 RMK A01 T00701035  RH  047%=      5-min Rain = 0
KAHS 200035Z 02005KT 07/M04 A3027 RMK A01 T00701036  RH  047%=      5-min Rain = 0
KAHS 200036Z 02005KT 07/M04 A3027 RMK A01 T00701036  RH  047%=      5-min Rain = 0
KAHS 200037Z 02005KT 07/M04 A3027 RMK A01 T00701036  RH  047%=      5-min Rain = 0
KAHS 200038Z 02005KT 07/M04 A3027 RMK A01 T00691036  RH  047%=      5-min Rain = 0
KAHS 200039Z 02005KT 07/M04 A3027 RMK A01 T00691036  RH  047%=      5-min Rain = 0
KAHS 200040Z 03005KT 07/M04 A3027 RMK A01 T00681036  RH  047%=      5-min Rain = 0
KAHS 200041Z 03005KT 07/M04 A3027 RMK A01 T00681036  RH  047%=      5-min Rain = 0
KAHS 200042Z 03005KT 07/M04 A3027 RMK A01 T00681036  RH  048%=      5-min Rain = 0
KAHS 200043Z 03005KT 07/M04 A3027 RMK A01 T00671036  RH  048%=      5-min Rain = 0
KAHS 200044Z 03005KT 07/M04 A3027 RMK A01 T00671036  RH  048%=      5-min Rain = 0
KAHS 200045Z 03005KT 07/M04 A3027 RMK A01 T00671036  RH  048%=      5-min Rain = 0
KAHS 200046Z 03005KT 07/M04 A3027 RMK A01 T00661036  RH  048%=      5-min Rain = 0
KAHS 200047Z 04005KT 07/M04 A3027 RMK A01 T00661036  RH  048%=      5-min Rain = 0
KAHS 200048Z 04005KT 07/M04 A3027 RMK A01 T00651036  RH  048%=      5-min Rain = 0
KAHS 200049Z 04005KT 07/M04 A3027 RMK A01 T00651036  RH  048%=      5-min Rain = 0
KAHS 200050Z 04005KT 07/M04 A3027 RMK A01 T00651036  RH  048%=      5-min Rain = 0
KAHS 200051Z 04005KT 07/M04 A3027 RMK A01 T00651037  RH  048%=      5-min Rain = 0
KAHS 200052Z 03004KT 07/M04 A3027 RMK A01 T00651037  RH  048%=      5-min Rain = 0
KAHS 200053Z 03004KT 07/M04 A3027 RMK A01 T00651037  RH  048%=      5-min Rain = 0
KAHS 200054Z 04004KT 07/M04 A3028 RMK A01 T00651037  RH  048%=      5-min Rain = 0
KAHS 200055Z 03004KT 07/M04 A3028 RMK A01 T00661037  RH  048%=      5-min Rain = 0
KAHS 200056Z 03004KT 07/M04 A3028 RMK A01 T00651037  RH  048%=      5-min Rain = 0
KAHS 200057Z 02004KT 07/M04 A3028 RMK A01 T00651037  RH  048%=      5-min Rain = 0
KAHS 200058Z 02004KT 06/M04 A3028 RMK A01 T00641037  RH  048%=      5-min Rain = 0
KAHS 200059Z 03004KT 06/M04 A3028 RMK A01 T00641038  RH  048%=      5-min Rain = 0
KAHS 200100Z 02003KT 06/M04 A3028 RMK A01 T00631038  RH  048%=      5-min Rain = 0
KAHS 200101Z 02004KT 06/M04 A3028 RMK A01 T00621038  RH  049%=      5-min Rain = 0
KAHS 200102Z 02004KT 06/M04 A3028 RMK A01 T00621038  RH  049%=      5-min Rain = 0
KAHS 200103Z 02004KT 06/M04 A3028 RMK A01 T00611038  RH  049%=      5-min Rain = 0
KAHS 200104Z 02004KT 06/M04 A3028 RMK A01 T00601038  RH  049%=      5-min Rain = 0
KAHS 200105Z 02005KT 06/M04 A3028 RMK A01 T00601038  RH  049%=      5-min Rain = 0
KAHS 200106Z 02005KT 06/M04 A3028 RMK A01 T00601038  RH  049%=      5-min Rain = 0
KAHS 200107Z 02005KT 06/M04 A3028 RMK A01 T00601038  RH  049%=      5-min Rain = 0
KAHS 200108Z 02005KT 06/M04 A3028 RMK A01 T00591038  RH  050%=      5-min Rain = 0
KAHS 200109Z 02005KT 06/M04 A3028 RMK A01 T00601038  RH  050%=      5-min Rain = 0
KAHS 200110Z 02005KT 06/M04 A3028 RMK A01 T00601038  RH  049%=      5-min Rain = 0
KAHS 200111Z 02005KT 06/M04 A3028 RMK A01 T00611038  RH  049%=      5-min Rain = 0
KAHS 200112Z 03005KT 06/M04 A3028 RMK A01 T00611038  RH  049%=      5-min Rain = 0
KAHS 200113Z 03005KT 06/M04 A3028 RMK A01 T00601038  RH  049%=      5-min Rain = 0
KAHS 200114Z 03005KT 06/M04 A3028 RMK A01 T00591038  RH  050%=      5-min Rain = 0
KAHS 200115Z 04005KT 06/M04 A3028 RMK A01 T00591037  RH  050%=      5-min Rain = 0
KAHS 200116Z 04005KT 06/M04 A3028 RMK A01 T00571038  RH  050%=      5-min Rain = 0
KAHS 200117Z 04005KT 06/M04 A3028 RMK A01 T00571038  RH  051%=      5-min Rain = 0
KAHS 200118Z 04005KT 06/M04 A3028 RMK A01 T00561038  RH  051%=      5-min Rain = 0
KAHS 200119Z 04005KT 06/M04 A3028 RMK A01 T00561038  RH  051%=      5-min Rain = 0
KAHS 200120Z 04005KT 06/M04 A3028 RMK A01 T00571038  RH  051%=      5-min Rain = 0
KAHS 200121Z 04005KT 06/M04 A3028 RMK A01 T00571038  RH  051%=      5-min Rain = 0
KAHS 200122Z 05005KT 06/M04 A3028 RMK A01 T00571038  RH  051%=      5-min Rain = 0
KAHS 200123Z 05004KT 06/M04 A3028 RMK A01 T00571038  RH  051%=      5-min Rain = 0
KAHS 200124Z 05005KT 06/M04 A3028 RMK A01 T00571037  RH  051%=      5-min Rain = 0
KAHS 200125Z 05005KT 06/M04 A3028 RMK A01 T00571038  RH  051%=      5-min Rain = 0
KAHS 200126Z 05005KT 06/M04 A3028 RMK A01 T00571038  RH  051%=      5-min Rain = 0
KAHS 200127Z 05005KT 06/M04 A3028 RMK A01 T00571037  RH  051%=      5-min Rain = 0
KAHS 200128Z 05005KT 06/M04 A3028 RMK A01 T00561038  RH  051%=      5-min Rain = 0
KAHS 200129Z 05006KT 06/M04 A3028 RMK A01 T00551038  RH  051%=      5-min Rain = 0
KAHS 200130Z 06005KT 06/M04 A3028 RMK A01 T00551037  RH  051%=      5-min Rain = 0
KAHS 200131Z 06005KT 05/M04 A3028 RMK A01 T00541037  RH  052%=      5-min Rain = 0
KAHS 200132Z 07004KT 05/M04 A3028 RMK A01 T00541037  RH  052%=      5-min Rain = 0
KAHS 200133Z 06003KT 05/M04 A3028 RMK A01 T00541037  RH  052%=      5-min Rain = 0
KAHS 200134Z 06004KT 05/M04 A3029 RMK A01 T00541037  RH  052%=      5-min Rain = 0
KAHS 200135Z 06004KT 05/M04 A3029 RMK A01 T00531037  RH  052%=      5-min Rain = 0
KAHS 200136Z 08004KT 05/M04 A3028 RMK A01 T00541037  RH  052%=      5-min Rain = 0
KAHS 200137Z 08004KT 05/M04 A3028 RMK A01 T00541037  RH  052%=      5-min Rain = 0
KAHS 200138Z 08005KT 05/M04 A3028 RMK A01 T00541037  RH  052%=      5-min Rain = 0
KAHS 200139Z 08005KT 05/M04 A3029 RMK A01 T00541037  RH  052%=      5-min Rain = 0
KAHS 200140Z 08006KT 05/M04 A3029 RMK A01 T00541037  RH  052%=      5-min Rain = 0
KAHS 200141Z 08005KT 05/M04 A3029 RMK A01 T00531037  RH  052%=      5-min Rain = 0
KAHS 200142Z 08005KT 05/M04 A3029 RMK A01 T00521037  RH  053%=      5-min Rain = 0
KAHS 200143Z 08005KT 05/M04 A3029 RMK A01 T00511037  RH  053%=      5-min Rain = 0
KAHS 200144Z 08005KT 05/M04 A3029 RMK A01 T00501037  RH  053%=      5-min Rain = 0
KAHS 200145Z 08006KT 05/M04 A3029 RMK A01 T00501037  RH  053%=      5-min Rain = 0
KAHS 200146Z 08006KT 05/M04 A3029 RMK A01 T00501036  RH  054%=      5-min Rain = 0
KAHS 200147Z 08007KT 05/M04 A3029 RMK A01 T00511036  RH  054%=      5-min Rain = 0
KAHS 200148Z 08006KT 05/M04 A3029 RMK A01 T00511036  RH  054%=      5-min Rain = 0
KAHS 200149Z 08006KT 05/M04 A3029 RMK A01 T00501035  RH  054%=      5-min Rain = 0
KAHS 200150Z 08006KT 05/M04 A3029 RMK A01 T00501035  RH  054%=      5-min Rain = 0
KAHS 200151Z 08007KT 05/M03 A3029 RMK A01 T00511034  RH  054%=      5-min Rain = 0
KAHS 200152Z 08007KT 05/M03 A3029 RMK A01 T00511033  RH  055%=      5-min Rain = 0
KAHS 200153Z 08007KT 05/M03 A3029 RMK A01 T00511033  RH  055%=      5-min Rain = 0
KAHS 200154Z 07006KT 05/M03 A3029 RMK A01 T00511033  RH  055%=      5-min Rain = 0
KAHS 200155Z 07006KT 05/M03 A3029 RMK A01 T00511033  RH  055%=      5-min Rain = 0
KAHS 200156Z 07006KT 05/M03 A3029 RMK A01 T00511033  RH  055%=      5-min Rain = 0
KAHS 200157Z 07006KT 05/M03 A303 RMK A01 T00511033  RH  055%=      5-min Rain = 0
KAHS 200158Z 08006KT 05/M03 A303 RMK A01 T00501033  RH  055%=      5-min Rain = 0
KAHS 200159Z 08006KT 05/M03 A303 RMK A01 T00501033  RH  055%=      5-min Rain = 0
KAHS 200200Z 08006KT 05/M03 A3029 RMK A01 T00501033  RH  055%=      5-min Rain = 0
KAHS 200201Z 08006KT 05/M03 A3029 RMK A01 T00501033  RH  055%=      5-min Rain = 0
KAHS 200202Z 08006KT 05/M03 A3029 RMK A01 T00501032  RH  055%=      5-min Rain = 0
KAHS 200203Z 08006KT 05/M03 A3029 RMK A01 T00501032  RH  055%=      5-min Rain = 0
KAHS 200204Z 08006KT 05/M03 A3029 RMK A01 T00501033  RH  055%=      5-min Rain = 0
KAHS 200205Z 08006KT 05/M03 A3029 RMK A01 T00491033  RH  055%=      5-min Rain = 0
KAHS 200206Z 08005KT 05/M03 A3029 RMK A01 T00491033  RH  055%=      5-min Rain = 0
KAHS 200207Z 08005KT 05/M03 A3029 RMK A01 T00481033  RH  056%=      5-min Rain = 0
KAHS 200208Z 09005KT 05/M03 A3029 RMK A01 T00481033  RH  056%=      5-min Rain = 0
KAHS 200209Z 09005KT 05/M03 A3029 RMK A01 T00481033  RH  056%=      5-min Rain = 0
KAHS 200210Z 10004KT 05/M03 A3029 RMK A01 T00471033  RH  056%=      5-min Rain = 0
KAHS 200211Z 10005KT 05/M03 A3029 RMK A01 T00471033  RH  056%=      5-min Rain = 0
KAHS 200212Z 10005KT 05/M03 A3029 RMK A01 T00471034  RH  056%=      5-min Rain = 0
KAHS 200213Z 10005KT 05/M03 A3029 RMK A01 T00461034  RH  056%=      5-min Rain = 0
KAHS 200214Z 10006KT 05/M04 A3029 RMK A01 T00451035  RH  056%=      5-min Rain = 0
KAHS 200215Z 10006KT 05/M03 A3029 RMK A01 T00451034  RH  056%=      5-min Rain = 0
KAHS 200216Z 10006KT 04/M04 A3028 RMK A01 T00431035  RH  057%=      5-min Rain = 0
KAHS 200217Z 10006KT 04/M04 A3028 RMK A01 T00431035  RH  057%=      5-min Rain = 0
KAHS 200218Z 10006KT 04/M03 A3028 RMK A01 T00421034  RH  058%=      5-min Rain = 0
KAHS 200219Z 09005KT 04/M03 A3028 RMK A01 T00421034  RH  058%=      5-min Rain = 0
KAHS 200220Z 09005KT 04/M03 A3028 RMK A01 T00421034  RH  058%=      5-min Rain = 0
KAHS 200221Z 09005KT 04/M04 A3028 RMK A01 T00411035  RH  058%=      5-min Rain = 0
KAHS 200222Z 09005KT 04/M04 A3028 RMK A01 T00411035  RH  058%=      5-min Rain = 0
KAHS 200223Z 09005KT 04/M04 A3028 RMK A01 T00411035  RH  058%=      5-min Rain = 0
KAHS 200224Z 09005KT 04/M04 A3028 RMK A01 T00411035  RH  058%=      5-min Rain = 0
KAHS 200225Z 08005KT 04/M04 A3028 RMK A01 T00411035  RH  058%=      5-min Rain = 0
KAHS 200226Z 08005KT 04/M04 A3028 RMK A01 T00411035  RH  057%=      5-min Rain = 0
KAHS 200227Z 08005KT 04/M04 A3028 RMK A01 T00421035  RH  057%=      5-min Rain = 0
KAHS 200228Z 08006KT 04/M04 A3028 RMK A01 T00421035  RH  057%=      5-min Rain = 0
KAHS 200229Z 08006KT 04/M04 A3028 RMK A01 T00421035  RH  058%=      5-min Rain = 0
KAHS 200230Z 08006KT 04/M03 A3028 RMK A01 T00411034  RH  058%=      5-min Rain = 0
KAHS 200231Z 08006KT 04/M03 A3028 RMK A01 T00411034  RH  058%=      5-min Rain = 0
KAHS 200232Z 08006KT 04/M03 A3028 RMK A01 T00411034  RH  058%=      5-min Rain = 0
KAHS 200233Z 08006KT 04/M03 A3028 RMK A01 T00411034  RH  058%=      5-min Rain = 0
KAHS 200234Z 09006KT 04/M03 A3028 RMK A01 T00401034  RH  058%=      5-min Rain = 0
KAHS 200235Z 09006KT 04/M03 A3028 RMK A01 T00401034  RH  058%=      5-min Rain = 0
KAHS 200236Z 09005KT 04/M03 A3028 RMK A01 T00391034  RH  059%=      5-min Rain = 0
KAHS 200237Z 09005KT 04/M03 A3028 RMK A01 T00381034  RH  059%=      5-min Rain = 0
KAHS 200238Z 10004KT 04/M03 A3028 RMK A01 T00381034  RH  059%=      5-min Rain = 0
KAHS 200239Z 11004KT 04/M03 A3028 RMK A01 T00381034  RH  059%=      5-min Rain = 0
KAHS 200240Z 12003KT 04/M04 A3028 RMK A01 T00381035  RH  059%=      5-min Rain = 0
KAHS 200241Z 14003KT 04/M04 A3028 RMK A01 T00361036  RH  059%=      5-min Rain = 0
KAHS 200242Z 14003KT 03/M04 A3028 RMK A01 T00341036  RH  060%=      5-min Rain = 0
KAHS 200243Z 14003KT 03/M04 A3028 RMK A01 T00331036  RH  060%=      5-min Rain = 0
KAHS 200244Z 14003KT 03/M04 A3028 RMK A01 T00331036  RH  061%=      5-min Rain = 0
KAHS 200245Z 14003KT 03/M04 A3028 RMK A01 T00321036  RH  061%=      5-min Rain = 0
KAHS 200246Z 15003KT 03/M04 A3029 RMK A01 T00311036  RH  061%=      5-min Rain = 0
KAHS 200247Z 17002KT 03/M04 A3029 RMK A01 T00311035  RH  061%=      5-min Rain = 0
KAHS 200248Z 17003KT 03/M04 A3029 RMK A01 T00321035  RH  061%=      5-min Rain = 0
KAHS 200249Z 16003KT 03/M04 A3029 RMK A01 T00331035  RH  061%=      5-min Rain = 0
KAHS 200250Z 15003KT 03/M04 A3029 RMK A01 T00331035  RH  061%=      5-min Rain = 0
KAHS 200251Z 15003KT 03/M04 A3029 RMK A01 T00341035  RH  061%=      5-min Rain = 0
KAHS 200252Z 14004KT 03/M04 A3029 RMK A01 T00341035  RH  060%=      5-min Rain = 0
KAHS 200253Z 13004KT 03/M04 A3029 RMK A01 T00341035  RH  060%=      5-min Rain = 0
KAHS 200254Z 13004KT 03/M04 A3028 RMK A01 T00331035  RH  061%=      5-min Rain = 0
KAHS 200255Z 12004KT 03/M04 A3029 RMK A01 T00331035  RH  061%=      5-min Rain = 0
KAHS 200256Z 12004KT 03/M04 A3029 RMK A01 T00331035  RH  061%=      5-min Rain = 0
KAHS 200257Z 12004KT 03/M04 A3029 RMK A01 T00331035  RH  061%=      5-min Rain = 0
KAHS 200258Z 13004KT 03/M04 A3029 RMK A01 T00341035  RH  061%=      5-min Rain = 0
KAHS 200259Z 13003KT 03/M04 A3029 RMK A01 T00341035  RH  061%=      5-min Rain = 0
KAHS 200300Z 14003KT 03/M04 A303 RMK A01 T00341036  RH  060%=      5-min Rain = 0
KAHS 200301Z 14004KT 03/M04 A303 RMK A01 T00331036  RH  060%=      5-min Rain = 0
KAHS 200302Z 15004KT 03/M04 A303 RMK A01 T00321036  RH  061%=      5-min Rain = 0
KAHS 200303Z 14004KT 03/M04 A303 RMK A01 T00311036  RH  061%=      5-min Rain = 0
KAHS 200304Z 14004KT 03/M04 A303 RMK A01 T00301036  RH  062%=      5-min Rain = 0
KAHS 200305Z 14005KT 03/M04 A303 RMK A01 T00301036  RH  062%=      5-min Rain = 0
KAHS 200306Z 13005KT 03/M04 A303 RMK A01 T00291036  RH  062%=      5-min Rain = 0
KAHS 200307Z 13006KT 03/M04 A303 RMK A01 T00291035  RH  062%=      5-min Rain = 0
KAHS 200308Z 13005KT 03/M04 A303 RMK A01 T00291035  RH  062%=      5-min Rain = 0
KAHS 200309Z 13005KT 03/M04 A303 RMK A01 T00291036  RH  062%=      5-min Rain = 0
KAHS 200310Z 12005KT 03/M04 A303 RMK A01 T00301036  RH  062%=      5-min Rain = 0
KAHS 200311Z 12004KT 03/M04 A303 RMK A01 T00301036  RH  062%=      5-min Rain = 0
KAHS 200312Z 12004KT 03/M04 A303 RMK A01 T00311036  RH  062%=      5-min Rain = 0
KAHS 200313Z 11004KT 03/M04 A303 RMK A01 T00311036  RH  062%=      5-min Rain = 0
KAHS 200314Z 10004KT 03/M04 A303 RMK A01 T00301036  RH  062%=      5-min Rain = 0
KAHS 200315Z 10004KT 03/M04 A303 RMK A01 T00301036  RH  062%=      5-min Rain = 0
KAHS 200316Z 10004KT 03/M04 A303 RMK A01 T00301036  RH  062%=      5-min Rain = 0
KAHS 200317Z 10004KT 03/M04 A303 RMK A01 T00301036  RH  062%=      5-min Rain = 0
KAHS 200318Z 10003KT 03/M04 A303 RMK A01 T00291036  RH  062%=      5-min Rain = 0
KAHS 200319Z 10003KT 03/M04 A303 RMK A01 T00271037  RH  063%=      5-min Rain = 0
KAHS 200320Z 11003KT 03/M04 A303 RMK A01 T00251037  RH  063%=      5-min Rain = 0
KAHS 200321Z 11003KT 03/M04 A303 RMK A01 T00251037  RH  064%=      5-min Rain = 0
KAHS 200322Z 12003KT 03/M04 A3031 RMK A01 T00251037  RH  064%=      5-min Rain = 0
KAHS 200323Z 11003KT 03/M04 A3031 RMK A01 T00251037  RH  064%=      5-min Rain = 0
KAHS 200324Z 11002KT 03/M04 A3031 RMK A01 T00251037  RH  064%=      5-min Rain = 0
KAHS 200325Z 10003KT 03/M04 A303 RMK A01 T00251037  RH  064%=      5-min Rain = 0
KAHS 200326Z 09003KT 03/M04 A303 RMK A01 T00251037  RH  064%=      5-min Rain = 0
KAHS 200327Z 09003KT 03/M04 A303 RMK A01 T00261036  RH  063%=      5-min Rain = 0
KAHS 200328Z 09003KT 03/M04 A303 RMK A01 T00281035  RH  063%=      5-min Rain = 0
KAHS 200329Z 09003KT 03/M04 A303 RMK A01 T00281036  RH  063%=      5-min Rain = 0
KAHS 200330Z 09003KT 03/M04 A303 RMK A01 T00291036  RH  063%=      5-min Rain = 0
KAHS 200331Z 08002KT 03/M04 A3031 RMK A01 T00281036  RH  063%=      5-min Rain = 0
KAHS 200332Z 08003KT 03/M04 A3031 RMK A01 T00271037  RH  063%=      5-min Rain = 0
KAHS 200333Z 08002KT 03/M04 A3031 RMK A01 T00251037  RH  063%=      5-min Rain = 0
KAHS 200334Z 08002KT 03/M04 A3031 RMK A01 T00251037  RH  064%=      5-min Rain = 0
KAHS 200335Z 09002KT 02/M04 A303 RMK A01 T00241037  RH  064%=      5-min Rain = 0
KAHS 200336Z 10002KT 03/M04 A303 RMK A01 T00251037  RH  064%=      5-min Rain = 0
KAHS 200337Z 11002KT 02/M04 A303 RMK A01 T00241038  RH  064%=      5-min Rain = 0
KAHS 200338Z 12001KT 02/M04 A303 RMK A01 T00231038  RH  064%=      5-min Rain = 0
KAHS 200339Z 13002KT 02/M04 A3031 RMK A01 T00231037  RH  065%=      5-min Rain = 0
KAHS 200340Z 13002KT 02/M04 A3031 RMK A01 T00231036  RH  065%=      5-min Rain = 0
KAHS 200341Z 13002KT 02/M04 A3031 RMK A01 T00231037  RH  065%=      5-min Rain = 0
KAHS 200342Z 14002KT 02/M04 A3031 RMK A01 T00231037  RH  064%=      5-min Rain = 0
KAHS 200343Z 13002KT 02/M04 A3031 RMK A01 T00241036  RH  064%=      5-min Rain = 0
KAHS 200344Z 12002KT 02/M04 A3031 RMK A01 T00241037  RH  064%=      5-min Rain = 0
KAHS 200345Z 11002KT 02/M04 A303 RMK A01 T00241037  RH  064%=      5-min Rain = 0
KAHS 200346Z 10002KT 02/M04 A303 RMK A01 T00231037  RH  064%=      5-min Rain = 0
KAHS 200347Z 10003KT 02/M04 A303 RMK A01 T00241036  RH  064%=      5-min Rain = 0
KAHS 200348Z 10003KT 02/M04 A303 RMK A01 T00241036  RH  064%=      5-min Rain = 0
KAHS 200349Z 10003KT 03/M04 A303 RMK A01 T00251036  RH  064%=      5-min Rain = 0
KAHS 200350Z 10003KT 03/M04 A303 RMK A01 T00251036  RH  064%=      5-min Rain = 0
KAHS 200351Z 09003KT 03/M04 A303 RMK A01 T00251037  RH  064%=      5-min Rain = 0
KAHS 200352Z 09003KT 03/M04 A303 RMK A01 T00251037  RH  064%=      5-min Rain = 0
KAHS 200353Z 09003KT 02/M04 A303 RMK A01 T00241037  RH  064%=      5-min Rain = 0
KAHS 200354Z 09002KT 02/M04 A303 RMK A01 T00231037  RH  064%=      5-min Rain = 0
KAHS 200355Z 09002KT 02/M04 A303 RMK A01 T00221038  RH  065%=      5-min Rain = 0
KAHS 200356Z 10002KT 02/M04 A303 RMK A01 T00211038  RH  065%=      5-min Rain = 0
KAHS 200357Z 11002KT 02/M04 A303 RMK A01 T00201038  RH  066%=      5-min Rain = 0
KAHS 200358Z 11002KT 02/M04 A303 RMK A01 T00201037  RH  066%=      5-min Rain = 0
KAHS 200359Z 11002KT 02/M04 A303 RMK A01 T00191038  RH  066%=      5-min Rain = 0
KAHS 200400Z 17000KT 02/M04 A303 RMK A01 T00191038  RH  066%=      5-min Rain = 0
KAHS 200401Z 00000KT 02/M04 A3031 RMK A01 T00191037  RH  066%=      5-min Rain = 0
KAHS 200402Z 06001KT 02/M04 A3031 RMK A01 T00191038  RH  066%=      5-min Rain = 0
KAHS 200403Z 04001KT 02/M04 A3031 RMK A01 T00181038  RH  066%=      5-min Rain = 0
KAHS 200404Z 04001KT 02/M04 A3031 RMK A01 T00171039  RH  066%=      5-min Rain = 0
KAHS 200405Z 04002KT 02/M04 A3031 RMK A01 T00161038  RH  067%=      5-min Rain = 0
KAHS 200406Z 04002KT 02/M04 A3031 RMK A01 T00161038  RH  067%=      5-min Rain = 0
KAHS 200407Z 06002KT 02/M04 A3031 RMK A01 T00161038  RH  067%=      5-min Rain = 0
KAHS 200408Z 07002KT 02/M04 A3031 RMK A01 T00181037  RH  067%=      5-min Rain = 0
KAHS 200409Z 08002KT 02/M04 A303 RMK A01 T00201036  RH  067%=      5-min Rain = 0
KAHS 200410Z 09002KT 02/M04 A303 RMK A01 T00221035  RH  066%=      5-min Rain = 0
KAHS 200411Z 10002KT 02/M04 A303 RMK A01 T00241036  RH  065%=      5-min Rain = 0
KAHS 200412Z 11002KT 02/M04 A303 RMK A01 T00221039  RH  064%=      5-min Rain = 0
KAHS 200413Z 12003KT 02/M04 A303 RMK A01 T00171040  RH  066%=      5-min Rain = 0
KAHS 200414Z 13003KT 01/M04 A3029 RMK A01 T00131041  RH  067%=      5-min Rain = 0
KAHS 200415Z 13003KT 01/M04 A3029 RMK A01 T00101041  RH  069%=      5-min Rain = 0
KAHS 200416Z 14002KT 01/M04 A3029 RMK A01 T00071041  RH  070%=      5-min Rain = 0
KAHS 200417Z 14002KT 01/M04 A3029 RMK A01 T00051041  RH  072%=      5-min Rain = 0
KAHS 200418Z 13002KT 00/M04 A3029 RMK A01 T00031040  RH  072%=      5-min Rain = 0
KAHS 200419Z 13003KT 00/M04 A3029 RMK A01 T00031039  RH  073%=      5-min Rain = 0
KAHS 200420Z 13003KT 01/M04 A3029 RMK A01 T00061036  RH  073%=      5-min Rain = 0
KAHS 200421Z 12003KT 01/M03 A3029 RMK A01 T00101034  RH  073%=      5-min Rain = 0
KAHS 200422Z 11003KT 01/M03 A3029 RMK A01 T00141034  RH  071%=      5-min Rain = 0
KAHS 200423Z 11003KT 02/M04 A3029 RMK A01 T00161035  RH  069%=      5-min Rain = 0
KAHS 200424Z 11003KT 02/M04 A3029 RMK A01 T00181035  RH  068%=      5-min Rain = 0
KAHS 200425Z 10003KT 02/M04 A3029 RMK A01 T00201036  RH  067%=      5-min Rain = 0
KAHS 200426Z 10003KT 02/M04 A3029 RMK A01 T00211036  RH  066%=      5-min Rain = 0
KAHS 200427Z 10003KT 02/M04 A3029 RMK A01 T00211036  RH  066%=      5-min Rain = 0
KAHS 200428Z 11004KT 02/M04 A3029 RMK A01 T00211036  RH  066%=      5-min Rain = 0
KAHS 200429Z 11004KT 02/M04 A3029 RMK A01 T00211037  RH  065%=      5-min Rain = 0
KAHS 200430Z 11004KT 02/M04 A3029 RMK A01 T00211037  RH  065%=      5-min Rain = 0
KAHS 200431Z 10004KT 02/M04 A3029 RMK A01 T00211037  RH  066%=      5-min Rain = 0
KAHS 200432Z 10005KT 02/M04 A3029 RMK A01 T00201038  RH  066%=      5-min Rain = 0
KAHS 200433Z 10004KT 02/M04 A3029 RMK A01 T00191038  RH  066%=      5-min Rain = 0
KAHS 200434Z 10004KT 02/M04 A3029 RMK A01 T00181037  RH  067%=      5-min Rain = 0
KAHS 200435Z 10004KT 02/M04 A3029 RMK A01 T00181037  RH  067%=      5-min Rain = 0
KAHS 200436Z 10004KT 02/M04 A3029 RMK A01 T00171038  RH  067%=      5-min Rain = 0
KAHS 200437Z 10004KT 02/M04 A3029 RMK A01 T00161038  RH  067%=      5-min Rain = 0
KAHS 200438Z 10005KT 02/M04 A3029 RMK A01 T00161037  RH  068%=      5-min Rain = 0
KAHS 200439Z 10005KT 02/M04 A303 RMK A01 T00161037  RH  068%=      5-min Rain = 0
KAHS 200440Z 09005KT 02/M04 A303 RMK A01 T00151038  RH  068%=      5-min Rain = 0
KAHS 200441Z 09005KT 01/M04 A303 RMK A01 T00141037  RH  069%=      5-min Rain = 0
KAHS 200442Z 08004KT 01/M04 A303 RMK A01 T00131037  RH  069%=      5-min Rain = 0
KAHS 200443Z 09003KT 01/M04 A303 RMK A01 T00141036  RH  070%=      5-min Rain = 0
KAHS 200444Z 09005KT 02/M04 A3029 RMK A01 T00161035  RH  069%=      5-min Rain = 0
KAHS 200445Z 08005KT 02/M03 A3029 RMK A01 T00191034  RH  068%=      5-min Rain = 0
KAHS 200446Z 07004KT 02/M04 A303 RMK A01 T00191035  RH  067%=      5-min Rain = 0
KAHS 200447Z 07005KT 02/M04 A303 RMK A01 T00191036  RH  067%=      5-min Rain = 0
KAHS 200448Z 07005KT 02/M04 A303 RMK A01 T00191036  RH  067%=      5-min Rain = 0
KAHS 200449Z 07006KT 02/M04 A3031 RMK A01 T00191036  RH  067%=      5-min Rain = 0
KAHS 200450Z 07006KT 02/M04 A3031 RMK A01 T00181036  RH  067%=      5-min Rain = 0
KAHS 200451Z 07006KT 02/M04 A3031 RMK A01 T00181036  RH  068%=      5-min Rain = 0
KAHS 200452Z 08006KT 02/M04 A303 RMK A01 T00171036  RH  068%=      5-min Rain = 0
KAHS 200453Z 08006KT 02/M04 A303 RMK A01 T00181035  RH  068%=      5-min Rain = 0
KAHS 200454Z 08007KT 02/M04 A303 RMK A01 T00171035  RH  068%=      5-min Rain = 0
KAHS 200455Z 08007KT 02/M03 A3031 RMK A01 T00181034  RH  068%=      5-min Rain = 0
KAHS 200456Z 07007KT 02/M03 A3031 RMK A01 T00191034  RH  068%=      5-min Rain = 0
KAHS 200457Z 07007KT 02/M03 A3031 RMK A01 T00201034  RH  068%=      5-min Rain = 0
KAHS 200458Z 07008KT 02/M03 A3031 RMK A01 T00191034  RH  068%=      5-min Rain = 0
KAHS 200459Z 08008KT 02/M03 A3031 RMK A01 T00201034  RH  068%=      5-min Rain = 0
KAHS 200500Z 08007KT 02/M03 A3031 RMK A01 T00211033  RH  067%=      5-min Rain = 0
KAHS 200501Z 09007KT 02/M03 A303 RMK A01 T00211034  RH  067%=      5-min Rain = 0
KAHS 200502Z 09008KT 02/M03 A303 RMK A01 T00211034  RH  067%=      5-min Rain = 0
KAHS 200503Z 09008KT 02/M03 A303 RMK A01 T00221034  RH  067%=      5-min Rain = 0
KAHS 200504Z 08007KT 02/M03 A3031 RMK A01 T00221034  RH  066%=      5-min Rain = 0
KAHS 200505Z 08007KT 02/M03 A3031 RMK A01 T00211034  RH  067%=      5-min Rain = 0
KAHS 200506Z 08007KT 02/M03 A3031 RMK A01 T00211034  RH  067%=      5-min Rain = 0
KAHS 200507Z 08008KT 02/M04 A3031 RMK A01 T00201035  RH  067%=      5-min Rain = 0
KAHS 200508Z 08008KT 02/M03 A303 RMK A01 T00191034  RH  067%=      5-min Rain = 0
KAHS 200509Z 08007KT 02/M04 A303 RMK A01 T00191035  RH  068%=      5-min Rain = 0
KAHS 200510Z 08008KT 02/M04 A303 RMK A01 T00181035  RH  068%=      5-min Rain = 0
KAHS 200511Z 08009KT 02/M04 A303 RMK A01 T00171035  RH  068%=      5-min Rain = 0
KAHS 200512Z 09008KT 02/M04 A3029 RMK A01 T00171035  RH  068%=      5-min Rain = 0
KAHS 200513Z 09008KT 02/M04 A3029 RMK A01 T00171035  RH  068%=      5-min Rain = 0
KAHS 200514Z 09006KT 02/M04 A303 RMK A01 T00161035  RH  069%=      5-min Rain = 0
KAHS 200515Z 09006KT 02/M04 A303 RMK A01 T00151036  RH  069%=      5-min Rain = 0
KAHS 200516Z 08006KT 01/M04 A303 RMK A01 T00141036  RH  069%=      5-min Rain = 0
KAHS 200517Z 08006KT 01/M04 A3031 RMK A01 T00141037  RH  069%=      5-min Rain = 0
KAHS 200518Z 08006KT 01/M04 A3031 RMK A01 T00131037  RH  069%=      5-min Rain = 0
KAHS 200519Z 09006KT 01/M04 A3031 RMK A01 T00121037  RH  070%=      5-min Rain = 0
KAHS 200520Z 08005KT 01/M04 A3031 RMK A01 T00121038  RH  070%=      5-min Rain = 0
KAHS 200521Z 08006KT 01/M04 A3031 RMK A01 T00111038  RH  070%=      5-min Rain = 0
KAHS 200522Z 08006KT 01/M04 A3031 RMK A01 T00111038  RH  070%=      5-min Rain = 0
KAHS 200523Z 08006KT 01/M04 A3031 RMK A01 T00111039  RH  070%=      5-min Rain = 0
KAHS 200524Z 08006KT 01/M04 A3031 RMK A01 T00101039  RH  070%=      5-min Rain = 0
KAHS 200525Z 08005KT 01/M04 A3031 RMK A01 T00101040  RH  070%=      5-min Rain = 0
KAHS 200526Z 09005KT 01/M04 A3031 RMK A01 T00101040  RH  069%=      5-min Rain = 0
KAHS 200527Z 09005KT 01/M04 A3032 RMK A01 T00101041  RH  069%=      5-min Rain = 0
KAHS 200528Z 08005KT 01/M04 A3032 RMK A01 T00101041  RH  069%=      5-min Rain = 0
KAHS 200529Z 08005KT 01/M04 A3032 RMK A01 T00091041  RH  069%=      5-min Rain = 0
KAHS 200530Z 08005KT 01/M04 A3031 RMK A01 T00091041  RH  069%=      5-min Rain = 0
KAHS 200531Z 09005KT 01/M04 A3031 RMK A01 T00091041  RH  069%=      5-min Rain = 0
KAHS 200532Z 09005KT 01/M04 A3031 RMK A01 T00081042  RH  069%=      5-min Rain = 0
KAHS 200533Z 09004KT 01/M04 A3031 RMK A01 T00081042  RH  069%=      5-min Rain = 0
KAHS 200534Z 09005KT 01/M04 A3031 RMK A01 T00081042  RH  069%=      5-min Rain = 0
KAHS 200535Z 09005KT 01/M04 A3032 RMK A01 T00081042  RH  069%=      5-min Rain = 0
KAHS 200536Z 08005KT 01/M04 A3032 RMK A01 T00081042  RH  069%=      5-min Rain = 0
KAHS 200537Z 08005KT 01/M04 A3032 RMK A01 T00081042  RH  069%=      5-min Rain = 0
KAHS 200538Z 09005KT 01/M04 A3032 RMK A01 T00071042  RH  070%=      5-min Rain = 0
KAHS 200539Z 09004KT 01/M04 A3032 RMK A01 T00071042  RH  070%=      5-min Rain = 0
KAHS 200540Z 08004KT 01/M04 A3032 RMK A01 T00071042  RH  069%=      5-min Rain = 0
KAHS 200541Z 08004KT 01/M04 A3032 RMK A01 T00071043  RH  069%=      5-min Rain = 0
KAHS 200542Z 08004KT 01/M04 A3032 RMK A01 T00071043  RH  069%=      5-min Rain = 0
KAHS 200543Z 08003KT 01/M04 A3032 RMK A01 T00071043  RH  069%=      5-min Rain = 0
KAHS 200544Z 08003KT 01/M04 A3032 RMK A01 T00071043  RH  069%=      5-min Rain = 0
KAHS 200545Z 07003KT 01/M04 A3032 RMK A01 T00071044  RH  069%=      5-min Rain = 0
KAHS 200546Z 07003KT 01/M04 A3033 RMK A01 T00071044  RH  069%=      5-min Rain = 0
KAHS 200547Z 08003KT 01/M04 A3033 RMK A01 T00071044  RH  069%=      5-min Rain = 0
KAHS 200548Z 09003KT 01/M04 A3032 RMK A01 T00061044  RH  069%=      5-min Rain = 0
KAHS 200549Z 09003KT 01/M04 A3032 RMK A01 T00071044  RH  069%=      5-min Rain = 0
KAHS 200550Z 09004KT 01/M04 A3032 RMK A01 T00071044  RH  068%=      5-min Rain = 0
KAHS 200551Z 09003KT 01/M04 A3032 RMK A01 T00071044  RH  068%=      5-min Rain = 0
KAHS 200552Z 09003KT 01/M04 A3032 RMK A01 T00081044  RH  068%=      5-min Rain = 0
KAHS 200553Z 09003KT 01/M05 A3032 RMK A01 T00071045  RH  068%=      5-min Rain = 0
KAHS 200554Z 09003KT 01/M05 A3032 RMK A01 T00061045  RH  069%=      5-min Rain = 0
KAHS 200555Z 09003KT 01/M05 A3032 RMK A01 T00061045  RH  069%=      5-min Rain = 0
KAHS 200556Z 10004KT 01/M04 A3032 RMK A01 T00061044  RH  069%=      5-min Rain = 0
KAHS 200557Z 10004KT 01/M04 A3032 RMK A01 T00061044  RH  069%=      5-min Rain = 0
KAHS 200558Z 09004KT 01/M04 A3032 RMK A01 T00051044  RH  069%=      5-min Rain = 0
KAHS 200559Z 09004KT 01/M04 A3032 RMK A01 T00051044  RH  070%=      5-min Rain = 0

Page generated in 0.1768 seconds.